<?xml version="1.0" encoding="UTF-8" standalone="no" ?>
<gpx xmlns="http://www.topografix.com/GPX/1/1" xmlns:xsi="http://www.w3.org/2001/XMLSchema-instance" xsi:schemaLocation="http://www.topografix.com/GPX/1/1 http://www.topografix.com/GPX/1/1/gpx.xsd" version="1.1" creator="VisuGPX - https://www.visugpx.com">
  <metadata>
    <name>20200901_142604.gpx</name>
  </metadata>
  <trk>
    <name><![CDATA[20200901_142604.gpx]]></name>
    <trkseg>
      <trkpt lat="47.97779" lon="0.38709">
        <ele>145</ele>
        <time>2020-09-01T12:26:05Z</time>
      </trkpt>
      <trkpt lat="47.97779" lon="0.38709">
        <ele>145</ele>
        <time>2020-09-01T12:26:06Z</time>
      </trkpt>
      <trkpt lat="47.97773" lon="0.38706">
        <ele>141</ele>
        <time>2020-09-01T12:26:24Z</time>
      </trkpt>
      <trkpt lat="47.97768" lon="0.38718">
        <ele>130</ele>
        <time>2020-09-01T12:29:35Z</time>
      </trkpt>
      <trkpt lat="47.97767" lon="0.38722">
        <ele>128</ele>
        <time>2020-09-01T12:29:50Z</time>
      </trkpt>
      <trkpt lat="47.97767" lon="0.38722">
        <ele>128</ele>
        <time>2020-09-01T12:29:50Z</time>
      </trkpt>
      <trkpt lat="47.97763" lon="0.38735">
        <ele>125</ele>
        <time>2020-09-01T12:32:11Z</time>
      </trkpt>
      <trkpt lat="47.97761" lon="0.38749">
        <ele>128</ele>
        <time>2020-09-01T12:32:21Z</time>
      </trkpt>
      <trkpt lat="47.97757" lon="0.38763">
        <ele>128</ele>
        <time>2020-09-01T12:32:31Z</time>
      </trkpt>
      <trkpt lat="47.97753" lon="0.38776">
        <ele>130</ele>
        <time>2020-09-01T12:32:39Z</time>
      </trkpt>
      <trkpt lat="47.9775" lon="0.3879">
        <ele>127</ele>
        <time>2020-09-01T12:32:49Z</time>
      </trkpt>
      <trkpt lat="47.97748" lon="0.38804">
        <ele>128</ele>
        <time>2020-09-01T12:32:58Z</time>
      </trkpt>
      <trkpt lat="47.97745" lon="0.38817">
        <ele>126</ele>
        <time>2020-09-01T12:33:06Z</time>
      </trkpt>
      <trkpt lat="47.97743" lon="0.3883">
        <ele>126</ele>
        <time>2020-09-01T12:33:14Z</time>
      </trkpt>
      <trkpt lat="47.9774" lon="0.38843">
        <ele>125</ele>
        <time>2020-09-01T12:33:22Z</time>
      </trkpt>
      <trkpt lat="47.97736" lon="0.38857">
        <ele>126</ele>
        <time>2020-09-01T12:33:31Z</time>
      </trkpt>
      <trkpt lat="47.97734" lon="0.3887">
        <ele>125</ele>
        <time>2020-09-01T12:33:40Z</time>
      </trkpt>
      <trkpt lat="47.97731" lon="0.38883">
        <ele>127</ele>
        <time>2020-09-01T12:33:48Z</time>
      </trkpt>
      <trkpt lat="47.97727" lon="0.38897">
        <ele>127</ele>
        <time>2020-09-01T12:33:57Z</time>
      </trkpt>
      <trkpt lat="47.97725" lon="0.3891">
        <ele>127</ele>
        <time>2020-09-01T12:34:05Z</time>
      </trkpt>
      <trkpt lat="47.97722" lon="0.38925">
        <ele>125</ele>
        <time>2020-09-01T12:34:13Z</time>
      </trkpt>
      <trkpt lat="47.97719" lon="0.38938">
        <ele>126</ele>
        <time>2020-09-01T12:34:20Z</time>
      </trkpt>
      <trkpt lat="47.97716" lon="0.38953">
        <ele>124</ele>
        <time>2020-09-01T12:34:28Z</time>
      </trkpt>
      <trkpt lat="47.97713" lon="0.38967">
        <ele>125</ele>
        <time>2020-09-01T12:34:37Z</time>
      </trkpt>
      <trkpt lat="47.97711" lon="0.3898">
        <ele>125</ele>
        <time>2020-09-01T12:34:45Z</time>
      </trkpt>
      <trkpt lat="47.97709" lon="0.38993">
        <ele>124</ele>
        <time>2020-09-01T12:34:52Z</time>
      </trkpt>
      <trkpt lat="47.97706" lon="0.39006">
        <ele>124</ele>
        <time>2020-09-01T12:35:00Z</time>
      </trkpt>
      <trkpt lat="47.97703" lon="0.3902">
        <ele>124</ele>
        <time>2020-09-01T12:35:07Z</time>
      </trkpt>
      <trkpt lat="47.977" lon="0.39033">
        <ele>123</ele>
        <time>2020-09-01T12:35:14Z</time>
      </trkpt>
      <trkpt lat="47.97697" lon="0.39048">
        <ele>123</ele>
        <time>2020-09-01T12:35:23Z</time>
      </trkpt>
      <trkpt lat="47.97693" lon="0.39061">
        <ele>124</ele>
        <time>2020-09-01T12:35:30Z</time>
      </trkpt>
      <trkpt lat="47.9769" lon="0.39075">
        <ele>124</ele>
        <time>2020-09-01T12:35:37Z</time>
      </trkpt>
      <trkpt lat="47.97688" lon="0.39088">
        <ele>124</ele>
        <time>2020-09-01T12:35:46Z</time>
      </trkpt>
      <trkpt lat="47.97685" lon="0.39101">
        <ele>124</ele>
        <time>2020-09-01T12:35:53Z</time>
      </trkpt>
      <trkpt lat="47.97685" lon="0.39116">
        <ele>124</ele>
        <time>2020-09-01T12:36:00Z</time>
      </trkpt>
      <trkpt lat="47.97686" lon="0.3913">
        <ele>124</ele>
        <time>2020-09-01T12:36:09Z</time>
      </trkpt>
      <trkpt lat="47.97688" lon="0.39144">
        <ele>123</ele>
        <time>2020-09-01T12:36:17Z</time>
      </trkpt>
      <trkpt lat="47.97683" lon="0.39156">
        <ele>123</ele>
        <time>2020-09-01T12:36:26Z</time>
      </trkpt>
      <trkpt lat="47.97677" lon="0.39167">
        <ele>121</ele>
        <time>2020-09-01T12:36:33Z</time>
      </trkpt>
      <trkpt lat="47.97669" lon="0.39174">
        <ele>121</ele>
        <time>2020-09-01T12:36:41Z</time>
      </trkpt>
      <trkpt lat="47.97662" lon="0.39183">
        <ele>122</ele>
        <time>2020-09-01T12:36:49Z</time>
      </trkpt>
      <trkpt lat="47.97654" lon="0.39189">
        <ele>123</ele>
        <time>2020-09-01T12:36:57Z</time>
      </trkpt>
      <trkpt lat="47.97644" lon="0.39191">
        <ele>122</ele>
        <time>2020-09-01T12:37:06Z</time>
      </trkpt>
      <trkpt lat="47.97636" lon="0.39199">
        <ele>120</ele>
        <time>2020-09-01T12:37:14Z</time>
      </trkpt>
      <trkpt lat="47.97631" lon="0.39211">
        <ele>120</ele>
        <time>2020-09-01T12:37:22Z</time>
      </trkpt>
      <trkpt lat="47.97623" lon="0.39219">
        <ele>118</ele>
        <time>2020-09-01T12:37:29Z</time>
      </trkpt>
      <trkpt lat="47.97614" lon="0.39225">
        <ele>118</ele>
        <time>2020-09-01T12:37:37Z</time>
      </trkpt>
      <trkpt lat="47.97604" lon="0.39228">
        <ele>118</ele>
        <time>2020-09-01T12:37:46Z</time>
      </trkpt>
      <trkpt lat="47.97595" lon="0.39233">
        <ele>118</ele>
        <time>2020-09-01T12:37:54Z</time>
      </trkpt>
      <trkpt lat="47.97586" lon="0.39239">
        <ele>118</ele>
        <time>2020-09-01T12:38:01Z</time>
      </trkpt>
      <trkpt lat="47.97577" lon="0.39245">
        <ele>117</ele>
        <time>2020-09-01T12:38:10Z</time>
      </trkpt>
      <trkpt lat="47.97568" lon="0.39251">
        <ele>116</ele>
        <time>2020-09-01T12:38:19Z</time>
      </trkpt>
      <trkpt lat="47.97561" lon="0.39259">
        <ele>116</ele>
        <time>2020-09-01T12:38:26Z</time>
      </trkpt>
      <trkpt lat="47.97553" lon="0.3927">
        <ele>117</ele>
        <time>2020-09-01T12:38:34Z</time>
      </trkpt>
      <trkpt lat="47.97549" lon="0.39283">
        <ele>116</ele>
        <time>2020-09-01T12:38:42Z</time>
      </trkpt>
      <trkpt lat="47.97545" lon="0.39295">
        <ele>117</ele>
        <time>2020-09-01T12:38:49Z</time>
      </trkpt>
      <trkpt lat="47.97542" lon="0.3931">
        <ele>117</ele>
        <time>2020-09-01T12:38:56Z</time>
      </trkpt>
      <trkpt lat="47.97539" lon="0.39324">
        <ele>116</ele>
        <time>2020-09-01T12:39:04Z</time>
      </trkpt>
      <trkpt lat="47.97535" lon="0.39338">
        <ele>116</ele>
        <time>2020-09-01T12:39:10Z</time>
      </trkpt>
      <trkpt lat="47.97532" lon="0.3935">
        <ele>117</ele>
        <time>2020-09-01T12:39:17Z</time>
      </trkpt>
      <trkpt lat="47.97525" lon="0.3936">
        <ele>118</ele>
        <time>2020-09-01T12:39:25Z</time>
      </trkpt>
      <trkpt lat="47.97521" lon="0.39372">
        <ele>118</ele>
        <time>2020-09-01T12:39:32Z</time>
      </trkpt>
      <trkpt lat="47.97519" lon="0.39386">
        <ele>118</ele>
        <time>2020-09-01T12:39:37Z</time>
      </trkpt>
      <trkpt lat="47.9752" lon="0.39399">
        <ele>116</ele>
        <time>2020-09-01T12:39:44Z</time>
      </trkpt>
      <trkpt lat="47.97522" lon="0.39414">
        <ele>118</ele>
        <time>2020-09-01T12:39:53Z</time>
      </trkpt>
      <trkpt lat="47.97525" lon="0.39427">
        <ele>118</ele>
        <time>2020-09-01T12:40:01Z</time>
      </trkpt>
      <trkpt lat="47.9753" lon="0.39438">
        <ele>118</ele>
        <time>2020-09-01T12:40:09Z</time>
      </trkpt>
      <trkpt lat="47.97535" lon="0.39452">
        <ele>119</ele>
        <time>2020-09-01T12:40:17Z</time>
      </trkpt>
      <trkpt lat="47.9754" lon="0.39464">
        <ele>119</ele>
        <time>2020-09-01T12:40:27Z</time>
      </trkpt>
      <trkpt lat="47.97546" lon="0.39476">
        <ele>119</ele>
        <time>2020-09-01T12:40:36Z</time>
      </trkpt>
      <trkpt lat="47.97549" lon="0.3949">
        <ele>120</ele>
        <time>2020-09-01T12:40:44Z</time>
      </trkpt>
      <trkpt lat="47.97556" lon="0.39501">
        <ele>120</ele>
        <time>2020-09-01T12:40:50Z</time>
      </trkpt>
      <trkpt lat="47.97562" lon="0.3951">
        <ele>121</ele>
        <time>2020-09-01T12:40:55Z</time>
      </trkpt>
      <trkpt lat="47.97569" lon="0.3952">
        <ele>122</ele>
        <time>2020-09-01T12:41:02Z</time>
      </trkpt>
      <trkpt lat="47.97574" lon="0.39533">
        <ele>121</ele>
        <time>2020-09-01T12:41:09Z</time>
      </trkpt>
      <trkpt lat="47.9758" lon="0.39544">
        <ele>122</ele>
        <time>2020-09-01T12:41:18Z</time>
      </trkpt>
      <trkpt lat="47.97586" lon="0.39557">
        <ele>122</ele>
        <time>2020-09-01T12:41:24Z</time>
      </trkpt>
      <trkpt lat="47.97591" lon="0.39569">
        <ele>123</ele>
        <time>2020-09-01T12:41:34Z</time>
      </trkpt>
      <trkpt lat="47.97595" lon="0.39582">
        <ele>124</ele>
        <time>2020-09-01T12:41:43Z</time>
      </trkpt>
      <trkpt lat="47.97601" lon="0.39594">
        <ele>124</ele>
        <time>2020-09-01T12:41:49Z</time>
      </trkpt>
      <trkpt lat="47.97606" lon="0.39608">
        <ele>123</ele>
        <time>2020-09-01T12:41:57Z</time>
      </trkpt>
      <trkpt lat="47.97611" lon="0.39619">
        <ele>123</ele>
        <time>2020-09-01T12:42:04Z</time>
      </trkpt>
      <trkpt lat="47.97617" lon="0.39632">
        <ele>123</ele>
        <time>2020-09-01T12:42:11Z</time>
      </trkpt>
      <trkpt lat="47.97622" lon="0.39645">
        <ele>124</ele>
        <time>2020-09-01T12:42:19Z</time>
      </trkpt>
      <trkpt lat="47.97624" lon="0.39659">
        <ele>125</ele>
        <time>2020-09-01T12:42:27Z</time>
      </trkpt>
      <trkpt lat="47.97625" lon="0.39672">
        <ele>126</ele>
        <time>2020-09-01T12:42:34Z</time>
      </trkpt>
      <trkpt lat="47.97631" lon="0.39686">
        <ele>126</ele>
        <time>2020-09-01T12:42:41Z</time>
      </trkpt>
      <trkpt lat="47.97638" lon="0.39696">
        <ele>126</ele>
        <time>2020-09-01T12:42:49Z</time>
      </trkpt>
      <trkpt lat="47.97647" lon="0.39702">
        <ele>127</ele>
        <time>2020-09-01T12:42:55Z</time>
      </trkpt>
      <trkpt lat="47.97656" lon="0.39707">
        <ele>127</ele>
        <time>2020-09-01T12:43:06Z</time>
      </trkpt>
      <trkpt lat="47.97664" lon="0.39714">
        <ele>128</ele>
        <time>2020-09-01T12:43:14Z</time>
      </trkpt>
      <trkpt lat="47.97673" lon="0.39721">
        <ele>128</ele>
        <time>2020-09-01T12:43:20Z</time>
      </trkpt>
      <trkpt lat="47.97682" lon="0.39726">
        <ele>128</ele>
        <time>2020-09-01T12:43:26Z</time>
      </trkpt>
      <trkpt lat="47.9769" lon="0.39733">
        <ele>128</ele>
        <time>2020-09-01T12:43:34Z</time>
      </trkpt>
      <trkpt lat="47.97699" lon="0.39742">
        <ele>128</ele>
        <time>2020-09-01T12:43:41Z</time>
      </trkpt>
      <trkpt lat="47.97709" lon="0.39748">
        <ele>127</ele>
        <time>2020-09-01T12:43:50Z</time>
      </trkpt>
      <trkpt lat="47.97717" lon="0.39753">
        <ele>129</ele>
        <time>2020-09-01T12:43:58Z</time>
      </trkpt>
      <trkpt lat="47.97726" lon="0.39758">
        <ele>129</ele>
        <time>2020-09-01T12:44:04Z</time>
      </trkpt>
      <trkpt lat="47.97734" lon="0.39767">
        <ele>130</ele>
        <time>2020-09-01T12:44:12Z</time>
      </trkpt>
      <trkpt lat="47.97742" lon="0.39773">
        <ele>129</ele>
        <time>2020-09-01T12:44:18Z</time>
      </trkpt>
      <trkpt lat="47.97751" lon="0.39775">
        <ele>128</ele>
        <time>2020-09-01T12:44:27Z</time>
      </trkpt>
      <trkpt lat="47.9776" lon="0.3978">
        <ele>130</ele>
        <time>2020-09-01T12:44:34Z</time>
      </trkpt>
      <trkpt lat="47.97769" lon="0.39786">
        <ele>128</ele>
        <time>2020-09-01T12:44:44Z</time>
      </trkpt>
      <trkpt lat="47.97778" lon="0.39792">
        <ele>128</ele>
        <time>2020-09-01T12:44:53Z</time>
      </trkpt>
      <trkpt lat="47.97788" lon="0.39797">
        <ele>127</ele>
        <time>2020-09-01T12:45:01Z</time>
      </trkpt>
      <trkpt lat="47.97798" lon="0.398">
        <ele>128</ele>
        <time>2020-09-01T12:45:08Z</time>
      </trkpt>
      <trkpt lat="47.97807" lon="0.39805">
        <ele>129</ele>
        <time>2020-09-01T12:45:16Z</time>
      </trkpt>
      <trkpt lat="47.97815" lon="0.39812">
        <ele>129</ele>
        <time>2020-09-01T12:45:22Z</time>
      </trkpt>
      <trkpt lat="47.97823" lon="0.39819">
        <ele>128</ele>
        <time>2020-09-01T12:45:30Z</time>
      </trkpt>
      <trkpt lat="47.97832" lon="0.39826">
        <ele>128</ele>
        <time>2020-09-01T12:45:37Z</time>
      </trkpt>
      <trkpt lat="47.97842" lon="0.3983">
        <ele>126</ele>
        <time>2020-09-01T12:45:45Z</time>
      </trkpt>
      <trkpt lat="47.97851" lon="0.39834">
        <ele>126</ele>
        <time>2020-09-01T12:45:51Z</time>
      </trkpt>
      <trkpt lat="47.9786" lon="0.39839">
        <ele>127</ele>
        <time>2020-09-01T12:45:58Z</time>
      </trkpt>
      <trkpt lat="47.97868" lon="0.39847">
        <ele>126</ele>
        <time>2020-09-01T12:46:07Z</time>
      </trkpt>
      <trkpt lat="47.97878" lon="0.39852">
        <ele>126</ele>
        <time>2020-09-01T12:46:15Z</time>
      </trkpt>
      <trkpt lat="47.97887" lon="0.39857">
        <ele>123</ele>
        <time>2020-09-01T12:46:22Z</time>
      </trkpt>
      <trkpt lat="47.97894" lon="0.39865">
        <ele>123</ele>
        <time>2020-09-01T12:46:30Z</time>
      </trkpt>
      <trkpt lat="47.97902" lon="0.39872">
        <ele>123</ele>
        <time>2020-09-01T12:46:37Z</time>
      </trkpt>
      <trkpt lat="47.9791" lon="0.39879">
        <ele>123</ele>
        <time>2020-09-01T12:46:45Z</time>
      </trkpt>
      <trkpt lat="47.97918" lon="0.39885">
        <ele>124</ele>
        <time>2020-09-01T12:46:52Z</time>
      </trkpt>
      <trkpt lat="47.97928" lon="0.39891">
        <ele>123</ele>
        <time>2020-09-01T12:47:00Z</time>
      </trkpt>
      <trkpt lat="47.97938" lon="0.39896">
        <ele>124</ele>
        <time>2020-09-01T12:47:09Z</time>
      </trkpt>
      <trkpt lat="47.97947" lon="0.39902">
        <ele>124</ele>
        <time>2020-09-01T12:47:16Z</time>
      </trkpt>
      <trkpt lat="47.97955" lon="0.39909">
        <ele>124</ele>
        <time>2020-09-01T12:47:24Z</time>
      </trkpt>
      <trkpt lat="47.97964" lon="0.39915">
        <ele>124</ele>
        <time>2020-09-01T12:47:30Z</time>
      </trkpt>
      <trkpt lat="47.97973" lon="0.39921">
        <ele>124</ele>
        <time>2020-09-01T12:47:39Z</time>
      </trkpt>
      <trkpt lat="47.97982" lon="0.39929">
        <ele>123</ele>
        <time>2020-09-01T12:47:45Z</time>
      </trkpt>
      <trkpt lat="47.9799" lon="0.39936">
        <ele>124</ele>
        <time>2020-09-01T12:47:53Z</time>
      </trkpt>
      <trkpt lat="47.97998" lon="0.39944">
        <ele>122</ele>
        <time>2020-09-01T12:48:00Z</time>
      </trkpt>
      <trkpt lat="47.98006" lon="0.39952">
        <ele>122</ele>
        <time>2020-09-01T12:48:09Z</time>
      </trkpt>
      <trkpt lat="47.98015" lon="0.39957">
        <ele>121</ele>
        <time>2020-09-01T12:48:16Z</time>
      </trkpt>
      <trkpt lat="47.98022" lon="0.39964">
        <ele>122</ele>
        <time>2020-09-01T12:48:22Z</time>
      </trkpt>
      <trkpt lat="47.98031" lon="0.39971">
        <ele>123</ele>
        <time>2020-09-01T12:48:29Z</time>
      </trkpt>
      <trkpt lat="47.9804" lon="0.39976">
        <ele>123</ele>
        <time>2020-09-01T12:48:37Z</time>
      </trkpt>
      <trkpt lat="47.98049" lon="0.39981">
        <ele>124</ele>
        <time>2020-09-01T12:48:44Z</time>
      </trkpt>
      <trkpt lat="47.98057" lon="0.39989">
        <ele>125</ele>
        <time>2020-09-01T12:48:50Z</time>
      </trkpt>
      <trkpt lat="47.98066" lon="0.39996">
        <ele>127</ele>
        <time>2020-09-01T12:48:59Z</time>
      </trkpt>
      <trkpt lat="47.98074" lon="0.40002">
        <ele>127</ele>
        <time>2020-09-01T12:49:06Z</time>
      </trkpt>
      <trkpt lat="47.98082" lon="0.40006">
        <ele>127</ele>
        <time>2020-09-01T12:49:12Z</time>
      </trkpt>
      <trkpt lat="47.98092" lon="0.40012">
        <ele>127</ele>
        <time>2020-09-01T12:49:21Z</time>
      </trkpt>
      <trkpt lat="47.981" lon="0.40018">
        <ele>127</ele>
        <time>2020-09-01T12:49:27Z</time>
      </trkpt>
      <trkpt lat="47.98109" lon="0.40024">
        <ele>126</ele>
        <time>2020-09-01T12:49:34Z</time>
      </trkpt>
      <trkpt lat="47.98117" lon="0.40032">
        <ele>127</ele>
        <time>2020-09-01T12:49:40Z</time>
      </trkpt>
      <trkpt lat="47.98127" lon="0.40038">
        <ele>128</ele>
        <time>2020-09-01T12:49:48Z</time>
      </trkpt>
      <trkpt lat="47.98135" lon="0.40047">
        <ele>127</ele>
        <time>2020-09-01T12:49:56Z</time>
      </trkpt>
      <trkpt lat="47.98144" lon="0.40052">
        <ele>127</ele>
        <time>2020-09-01T12:50:02Z</time>
      </trkpt>
      <trkpt lat="47.98153" lon="0.40057">
        <ele>126</ele>
        <time>2020-09-01T12:50:12Z</time>
      </trkpt>
      <trkpt lat="47.98163" lon="0.40061">
        <ele>125</ele>
        <time>2020-09-01T12:50:19Z</time>
      </trkpt>
      <trkpt lat="47.98171" lon="0.40068">
        <ele>125</ele>
        <time>2020-09-01T12:50:25Z</time>
      </trkpt>
      <trkpt lat="47.9818" lon="0.40074">
        <ele>124</ele>
        <time>2020-09-01T12:50:33Z</time>
      </trkpt>
      <trkpt lat="47.98188" lon="0.40081">
        <ele>124</ele>
        <time>2020-09-01T12:50:39Z</time>
      </trkpt>
      <trkpt lat="47.98196" lon="0.40087">
        <ele>123</ele>
        <time>2020-09-01T12:50:45Z</time>
      </trkpt>
      <trkpt lat="47.98204" lon="0.40094">
        <ele>122</ele>
        <time>2020-09-01T12:50:52Z</time>
      </trkpt>
      <trkpt lat="47.98213" lon="0.40098">
        <ele>123</ele>
        <time>2020-09-01T12:51:01Z</time>
      </trkpt>
      <trkpt lat="47.98221" lon="0.40106">
        <ele>122</ele>
        <time>2020-09-01T12:51:09Z</time>
      </trkpt>
      <trkpt lat="47.98229" lon="0.40113">
        <ele>122</ele>
        <time>2020-09-01T12:51:14Z</time>
      </trkpt>
      <trkpt lat="47.98237" lon="0.4012">
        <ele>123</ele>
        <time>2020-09-01T12:51:20Z</time>
      </trkpt>
      <trkpt lat="47.98245" lon="0.40126">
        <ele>123</ele>
        <time>2020-09-01T12:51:28Z</time>
      </trkpt>
      <trkpt lat="47.98253" lon="0.40132">
        <ele>123</ele>
        <time>2020-09-01T12:51:36Z</time>
      </trkpt>
      <trkpt lat="47.98262" lon="0.40135">
        <ele>122</ele>
        <time>2020-09-01T12:51:42Z</time>
      </trkpt>
      <trkpt lat="47.98272" lon="0.40142">
        <ele>122</ele>
        <time>2020-09-01T12:51:50Z</time>
      </trkpt>
      <trkpt lat="47.9828" lon="0.40147">
        <ele>123</ele>
        <time>2020-09-01T12:51:56Z</time>
      </trkpt>
      <trkpt lat="47.98289" lon="0.40154">
        <ele>122</ele>
        <time>2020-09-01T12:52:04Z</time>
      </trkpt>
      <trkpt lat="47.98298" lon="0.40159">
        <ele>122</ele>
        <time>2020-09-01T12:52:12Z</time>
      </trkpt>
      <trkpt lat="47.98306" lon="0.40166">
        <ele>121</ele>
        <time>2020-09-01T12:52:19Z</time>
      </trkpt>
      <trkpt lat="47.98314" lon="0.40174">
        <ele>119</ele>
        <time>2020-09-01T12:52:27Z</time>
      </trkpt>
      <trkpt lat="47.98322" lon="0.40181">
        <ele>120</ele>
        <time>2020-09-01T12:52:35Z</time>
      </trkpt>
      <trkpt lat="47.9833" lon="0.40188">
        <ele>121</ele>
        <time>2020-09-01T12:52:44Z</time>
      </trkpt>
      <trkpt lat="47.9834" lon="0.40192">
        <ele>120</ele>
        <time>2020-09-01T12:52:52Z</time>
      </trkpt>
      <trkpt lat="47.98347" lon="0.40202">
        <ele>119</ele>
        <time>2020-09-01T12:53:01Z</time>
      </trkpt>
      <trkpt lat="47.98352" lon="0.40214">
        <ele>119</ele>
        <time>2020-09-01T12:53:10Z</time>
      </trkpt>
      <trkpt lat="47.98354" lon="0.40227">
        <ele>120</ele>
        <time>2020-09-01T12:53:16Z</time>
      </trkpt>
      <trkpt lat="47.98354" lon="0.40241">
        <ele>119</ele>
        <time>2020-09-01T12:53:23Z</time>
      </trkpt>
      <trkpt lat="47.98353" lon="0.40254">
        <ele>117</ele>
        <time>2020-09-01T12:53:35Z</time>
      </trkpt>
      <trkpt lat="47.98352" lon="0.40268">
        <ele>116</ele>
        <time>2020-09-01T12:53:43Z</time>
      </trkpt>
      <trkpt lat="47.98352" lon="0.40281">
        <ele>117</ele>
        <time>2020-09-01T12:53:50Z</time>
      </trkpt>
      <trkpt lat="47.98351" lon="0.40296">
        <ele>116</ele>
        <time>2020-09-01T12:53:59Z</time>
      </trkpt>
      <trkpt lat="47.98349" lon="0.40311">
        <ele>115</ele>
        <time>2020-09-01T12:54:07Z</time>
      </trkpt>
      <trkpt lat="47.98347" lon="0.40325">
        <ele>114</ele>
        <time>2020-09-01T12:54:15Z</time>
      </trkpt>
      <trkpt lat="47.98346" lon="0.40338">
        <ele>114</ele>
        <time>2020-09-01T12:54:22Z</time>
      </trkpt>
      <trkpt lat="47.98345" lon="0.40352">
        <ele>115</ele>
        <time>2020-09-01T12:54:30Z</time>
      </trkpt>
      <trkpt lat="47.98344" lon="0.40365">
        <ele>114</ele>
        <time>2020-09-01T12:54:38Z</time>
      </trkpt>
      <trkpt lat="47.98345" lon="0.40379">
        <ele>115</ele>
        <time>2020-09-01T12:54:45Z</time>
      </trkpt>
      <trkpt lat="47.98344" lon="0.40394">
        <ele>115</ele>
        <time>2020-09-01T12:54:53Z</time>
      </trkpt>
      <trkpt lat="47.98345" lon="0.40408">
        <ele>114</ele>
        <time>2020-09-01T12:55:03Z</time>
      </trkpt>
      <trkpt lat="47.98343" lon="0.40422">
        <ele>115</ele>
        <time>2020-09-01T12:55:11Z</time>
      </trkpt>
      <trkpt lat="47.98343" lon="0.40437">
        <ele>115</ele>
        <time>2020-09-01T12:55:18Z</time>
      </trkpt>
      <trkpt lat="47.98341" lon="0.40451">
        <ele>115</ele>
        <time>2020-09-01T12:55:25Z</time>
      </trkpt>
      <trkpt lat="47.98338" lon="0.40465">
        <ele>115</ele>
        <time>2020-09-01T12:55:34Z</time>
      </trkpt>
      <trkpt lat="47.9833" lon="0.40473">
        <ele>113</ele>
        <time>2020-09-01T12:55:42Z</time>
      </trkpt>
      <trkpt lat="47.9832" lon="0.40477">
        <ele>111</ele>
        <time>2020-09-01T12:55:50Z</time>
      </trkpt>
      <trkpt lat="47.98312" lon="0.40483">
        <ele>109</ele>
        <time>2020-09-01T12:55:57Z</time>
      </trkpt>
      <trkpt lat="47.98302" lon="0.40486">
        <ele>109</ele>
        <time>2020-09-01T12:56:05Z</time>
      </trkpt>
      <trkpt lat="47.98293" lon="0.40489">
        <ele>111</ele>
        <time>2020-09-01T12:56:13Z</time>
      </trkpt>
      <trkpt lat="47.98283" lon="0.40493">
        <ele>112</ele>
        <time>2020-09-01T12:56:22Z</time>
      </trkpt>
      <trkpt lat="47.98274" lon="0.40496">
        <ele>111</ele>
        <time>2020-09-01T12:56:30Z</time>
      </trkpt>
      <trkpt lat="47.98265" lon="0.40498">
        <ele>111</ele>
        <time>2020-09-01T12:56:36Z</time>
      </trkpt>
      <trkpt lat="47.98255" lon="0.405">
        <ele>112</ele>
        <time>2020-09-01T12:56:44Z</time>
      </trkpt>
      <trkpt lat="47.98246" lon="0.40502">
        <ele>113</ele>
        <time>2020-09-01T12:56:52Z</time>
      </trkpt>
      <trkpt lat="47.98237" lon="0.40504">
        <ele>114</ele>
        <time>2020-09-01T12:57:00Z</time>
      </trkpt>
      <trkpt lat="47.98228" lon="0.4051">
        <ele>114</ele>
        <time>2020-09-01T12:57:09Z</time>
      </trkpt>
      <trkpt lat="47.98218" lon="0.40513">
        <ele>113</ele>
        <time>2020-09-01T12:57:19Z</time>
      </trkpt>
      <trkpt lat="47.98208" lon="0.40512">
        <ele>115</ele>
        <time>2020-09-01T12:57:26Z</time>
      </trkpt>
      <trkpt lat="47.98199" lon="0.40515">
        <ele>121</ele>
        <time>2020-09-01T12:57:34Z</time>
      </trkpt>
      <trkpt lat="47.98188" lon="0.40517">
        <ele>121</ele>
        <time>2020-09-01T12:57:41Z</time>
      </trkpt>
      <trkpt lat="47.98179" lon="0.40519">
        <ele>121</ele>
        <time>2020-09-01T12:57:47Z</time>
      </trkpt>
      <trkpt lat="47.98169" lon="0.4052">
        <ele>122</ele>
        <time>2020-09-01T12:57:54Z</time>
      </trkpt>
      <trkpt lat="47.98159" lon="0.40521">
        <ele>124</ele>
        <time>2020-09-01T12:58:01Z</time>
      </trkpt>
      <trkpt lat="47.9815" lon="0.40523">
        <ele>126</ele>
        <time>2020-09-01T12:58:09Z</time>
      </trkpt>
      <trkpt lat="47.98141" lon="0.40527">
        <ele>126</ele>
        <time>2020-09-01T12:58:17Z</time>
      </trkpt>
      <trkpt lat="47.98131" lon="0.40528">
        <ele>126</ele>
        <time>2020-09-01T12:58:24Z</time>
      </trkpt>
      <trkpt lat="47.98122" lon="0.40531">
        <ele>127</ele>
        <time>2020-09-01T12:58:31Z</time>
      </trkpt>
      <trkpt lat="47.98112" lon="0.40536">
        <ele>128</ele>
        <time>2020-09-01T12:58:39Z</time>
      </trkpt>
      <trkpt lat="47.98103" lon="0.40538">
        <ele>128</ele>
        <time>2020-09-01T12:58:46Z</time>
      </trkpt>
      <trkpt lat="47.98094" lon="0.40538">
        <ele>128</ele>
        <time>2020-09-01T12:58:53Z</time>
      </trkpt>
      <trkpt lat="47.98084" lon="0.40539">
        <ele>129</ele>
        <time>2020-09-01T12:59:01Z</time>
      </trkpt>
      <trkpt lat="47.98074" lon="0.40541">
        <ele>127</ele>
        <time>2020-09-01T12:59:10Z</time>
      </trkpt>
      <trkpt lat="47.98066" lon="0.40544">
        <ele>127</ele>
        <time>2020-09-01T12:59:18Z</time>
      </trkpt>
      <trkpt lat="47.98056" lon="0.40547">
        <ele>127</ele>
        <time>2020-09-01T12:59:26Z</time>
      </trkpt>
      <trkpt lat="47.98047" lon="0.40549">
        <ele>127</ele>
        <time>2020-09-01T12:59:34Z</time>
      </trkpt>
      <trkpt lat="47.98037" lon="0.40554">
        <ele>125</ele>
        <time>2020-09-01T12:59:43Z</time>
      </trkpt>
      <trkpt lat="47.98027" lon="0.40557">
        <ele>124</ele>
        <time>2020-09-01T12:59:52Z</time>
      </trkpt>
      <trkpt lat="47.98018" lon="0.40558">
        <ele>122</ele>
        <time>2020-09-01T13:00:00Z</time>
      </trkpt>
      <trkpt lat="47.98009" lon="0.4056">
        <ele>123</ele>
        <time>2020-09-01T13:00:09Z</time>
      </trkpt>
      <trkpt lat="47.97999" lon="0.40562">
        <ele>123</ele>
        <time>2020-09-01T13:00:17Z</time>
      </trkpt>
      <trkpt lat="47.97989" lon="0.40564">
        <ele>124</ele>
        <time>2020-09-01T13:00:27Z</time>
      </trkpt>
      <trkpt lat="47.9798" lon="0.40565">
        <ele>123</ele>
        <time>2020-09-01T13:00:35Z</time>
      </trkpt>
      <trkpt lat="47.97971" lon="0.4057">
        <ele>124</ele>
        <time>2020-09-01T13:00:43Z</time>
      </trkpt>
      <trkpt lat="47.97962" lon="0.40574">
        <ele>126</ele>
        <time>2020-09-01T13:00:51Z</time>
      </trkpt>
      <trkpt lat="47.97952" lon="0.40574">
        <ele>126</ele>
        <time>2020-09-01T13:00:59Z</time>
      </trkpt>
      <trkpt lat="47.97942" lon="0.40573">
        <ele>127</ele>
        <time>2020-09-01T13:01:06Z</time>
      </trkpt>
      <trkpt lat="47.97932" lon="0.40573">
        <ele>129</ele>
        <time>2020-09-01T13:01:13Z</time>
      </trkpt>
      <trkpt lat="47.97923" lon="0.40572">
        <ele>131</ele>
        <time>2020-09-01T13:01:20Z</time>
      </trkpt>
      <trkpt lat="47.97914" lon="0.40573">
        <ele>132</ele>
        <time>2020-09-01T13:01:28Z</time>
      </trkpt>
      <trkpt lat="47.97904" lon="0.40573">
        <ele>133</ele>
        <time>2020-09-01T13:01:34Z</time>
      </trkpt>
      <trkpt lat="47.97895" lon="0.40576">
        <ele>132</ele>
        <time>2020-09-01T13:01:42Z</time>
      </trkpt>
      <trkpt lat="47.97886" lon="0.40579">
        <ele>131</ele>
        <time>2020-09-01T13:01:51Z</time>
      </trkpt>
      <trkpt lat="47.97876" lon="0.40582">
        <ele>129</ele>
        <time>2020-09-01T13:01:58Z</time>
      </trkpt>
      <trkpt lat="47.97867" lon="0.40582">
        <ele>129</ele>
        <time>2020-09-01T13:02:05Z</time>
      </trkpt>
      <trkpt lat="47.97857" lon="0.40584">
        <ele>130</ele>
        <time>2020-09-01T13:02:12Z</time>
      </trkpt>
      <trkpt lat="47.97847" lon="0.40584">
        <ele>130</ele>
        <time>2020-09-01T13:02:20Z</time>
      </trkpt>
      <trkpt lat="47.97837" lon="0.40582">
        <ele>130</ele>
        <time>2020-09-01T13:02:27Z</time>
      </trkpt>
      <trkpt lat="47.97827" lon="0.40583">
        <ele>130</ele>
        <time>2020-09-01T13:02:35Z</time>
      </trkpt>
      <trkpt lat="47.97817" lon="0.40583">
        <ele>130</ele>
        <time>2020-09-01T13:02:43Z</time>
      </trkpt>
      <trkpt lat="47.97807" lon="0.40583">
        <ele>130</ele>
        <time>2020-09-01T13:02:50Z</time>
      </trkpt>
      <trkpt lat="47.97798" lon="0.40584">
        <ele>130</ele>
        <time>2020-09-01T13:02:58Z</time>
      </trkpt>
      <trkpt lat="47.97789" lon="0.40583">
        <ele>131</ele>
        <time>2020-09-01T13:03:05Z</time>
      </trkpt>
      <trkpt lat="47.97779" lon="0.40584">
        <ele>131</ele>
        <time>2020-09-01T13:03:13Z</time>
      </trkpt>
      <trkpt lat="47.97769" lon="0.40586">
        <ele>128</ele>
        <time>2020-09-01T13:03:21Z</time>
      </trkpt>
      <trkpt lat="47.9776" lon="0.40588">
        <ele>129</ele>
        <time>2020-09-01T13:03:29Z</time>
      </trkpt>
      <trkpt lat="47.9775" lon="0.40589">
        <ele>126</ele>
        <time>2020-09-01T13:03:36Z</time>
      </trkpt>
      <trkpt lat="47.97741" lon="0.40592">
        <ele>128</ele>
        <time>2020-09-01T13:03:44Z</time>
      </trkpt>
      <trkpt lat="47.97731" lon="0.40592">
        <ele>130</ele>
        <time>2020-09-01T13:03:52Z</time>
      </trkpt>
      <trkpt lat="47.97721" lon="0.40595">
        <ele>131</ele>
        <time>2020-09-01T13:04:00Z</time>
      </trkpt>
      <trkpt lat="47.97711" lon="0.40598">
        <ele>131</ele>
        <time>2020-09-01T13:04:09Z</time>
      </trkpt>
      <trkpt lat="47.97701" lon="0.40595">
        <ele>132</ele>
        <time>2020-09-01T13:04:15Z</time>
      </trkpt>
      <trkpt lat="47.97691" lon="0.40595">
        <ele>133</ele>
        <time>2020-09-01T13:04:22Z</time>
      </trkpt>
      <trkpt lat="47.97681" lon="0.40598">
        <ele>134</ele>
        <time>2020-09-01T13:04:30Z</time>
      </trkpt>
      <trkpt lat="47.97672" lon="0.40597">
        <ele>134</ele>
        <time>2020-09-01T13:04:37Z</time>
      </trkpt>
      <trkpt lat="47.97662" lon="0.40595">
        <ele>134</ele>
        <time>2020-09-01T13:04:46Z</time>
      </trkpt>
      <trkpt lat="47.97652" lon="0.40592">
        <ele>131</ele>
        <time>2020-09-01T13:04:53Z</time>
      </trkpt>
      <trkpt lat="47.97642" lon="0.40592">
        <ele>131</ele>
        <time>2020-09-01T13:05:01Z</time>
      </trkpt>
      <trkpt lat="47.97633" lon="0.40594">
        <ele>131</ele>
        <time>2020-09-01T13:05:09Z</time>
      </trkpt>
      <trkpt lat="47.97623" lon="0.40598">
        <ele>129</ele>
        <time>2020-09-01T13:05:17Z</time>
      </trkpt>
      <trkpt lat="47.97614" lon="0.40595">
        <ele>129</ele>
        <time>2020-09-01T13:05:25Z</time>
      </trkpt>
      <trkpt lat="47.97604" lon="0.40594">
        <ele>129</ele>
        <time>2020-09-01T13:05:33Z</time>
      </trkpt>
      <trkpt lat="47.97594" lon="0.40593">
        <ele>129</ele>
        <time>2020-09-01T13:05:41Z</time>
      </trkpt>
      <trkpt lat="47.97585" lon="0.40596">
        <ele>130</ele>
        <time>2020-09-01T13:05:48Z</time>
      </trkpt>
      <trkpt lat="47.97575" lon="0.40596">
        <ele>132</ele>
        <time>2020-09-01T13:05:57Z</time>
      </trkpt>
      <trkpt lat="47.97565" lon="0.40597">
        <ele>132</ele>
        <time>2020-09-01T13:06:05Z</time>
      </trkpt>
      <trkpt lat="47.97556" lon="0.40598">
        <ele>134</ele>
        <time>2020-09-01T13:06:12Z</time>
      </trkpt>
      <trkpt lat="47.97546" lon="0.40598">
        <ele>135</ele>
        <time>2020-09-01T13:06:19Z</time>
      </trkpt>
      <trkpt lat="47.97537" lon="0.40602">
        <ele>135</ele>
        <time>2020-09-01T13:06:27Z</time>
      </trkpt>
      <trkpt lat="47.97527" lon="0.40603">
        <ele>134</ele>
        <time>2020-09-01T13:06:35Z</time>
      </trkpt>
      <trkpt lat="47.97517" lon="0.40603">
        <ele>134</ele>
        <time>2020-09-01T13:06:43Z</time>
      </trkpt>
      <trkpt lat="47.97507" lon="0.40603">
        <ele>135</ele>
        <time>2020-09-01T13:06:51Z</time>
      </trkpt>
      <trkpt lat="47.97497" lon="0.40602">
        <ele>136</ele>
        <time>2020-09-01T13:07:00Z</time>
      </trkpt>
      <trkpt lat="47.97487" lon="0.40602">
        <ele>136</ele>
        <time>2020-09-01T13:07:08Z</time>
      </trkpt>
      <trkpt lat="47.97478" lon="0.40601">
        <ele>135</ele>
        <time>2020-09-01T13:07:16Z</time>
      </trkpt>
      <trkpt lat="47.97468" lon="0.40598">
        <ele>135</ele>
        <time>2020-09-01T13:07:24Z</time>
      </trkpt>
      <trkpt lat="47.97458" lon="0.40598">
        <ele>135</ele>
        <time>2020-09-01T13:07:34Z</time>
      </trkpt>
      <trkpt lat="47.97448" lon="0.40597">
        <ele>135</ele>
        <time>2020-09-01T13:07:41Z</time>
      </trkpt>
      <trkpt lat="47.97438" lon="0.40595">
        <ele>135</ele>
        <time>2020-09-01T13:07:49Z</time>
      </trkpt>
      <trkpt lat="47.97429" lon="0.40594">
        <ele>134</ele>
        <time>2020-09-01T13:07:55Z</time>
      </trkpt>
      <trkpt lat="47.9742" lon="0.40595">
        <ele>134</ele>
        <time>2020-09-01T13:08:02Z</time>
      </trkpt>
      <trkpt lat="47.97409" lon="0.40595">
        <ele>134</ele>
        <time>2020-09-01T13:08:10Z</time>
      </trkpt>
      <trkpt lat="47.974" lon="0.40596">
        <ele>134</ele>
        <time>2020-09-01T13:08:16Z</time>
      </trkpt>
      <trkpt lat="47.9739" lon="0.40599">
        <ele>134</ele>
        <time>2020-09-01T13:08:23Z</time>
      </trkpt>
      <trkpt lat="47.97381" lon="0.40602">
        <ele>133</ele>
        <time>2020-09-01T13:08:31Z</time>
      </trkpt>
      <trkpt lat="47.97374" lon="0.40611">
        <ele>130</ele>
        <time>2020-09-01T13:08:46Z</time>
      </trkpt>
      <trkpt lat="47.97364" lon="0.40609">
        <ele>129</ele>
        <time>2020-09-01T13:08:55Z</time>
      </trkpt>
      <trkpt lat="47.97355" lon="0.40605">
        <ele>128</ele>
        <time>2020-09-01T13:09:05Z</time>
      </trkpt>
      <trkpt lat="47.97345" lon="0.40601">
        <ele>128</ele>
        <time>2020-09-01T13:09:13Z</time>
      </trkpt>
      <trkpt lat="47.97336" lon="0.40598">
        <ele>129</ele>
        <time>2020-09-01T13:09:21Z</time>
      </trkpt>
      <trkpt lat="47.97326" lon="0.40595">
        <ele>129</ele>
        <time>2020-09-01T13:09:30Z</time>
      </trkpt>
      <trkpt lat="47.97317" lon="0.40594">
        <ele>129</ele>
        <time>2020-09-01T13:09:39Z</time>
      </trkpt>
      <trkpt lat="47.97307" lon="0.40596">
        <ele>128</ele>
        <time>2020-09-01T13:09:48Z</time>
      </trkpt>
      <trkpt lat="47.97297" lon="0.40597">
        <ele>129</ele>
        <time>2020-09-01T13:09:56Z</time>
      </trkpt>
      <trkpt lat="47.97288" lon="0.40602">
        <ele>129</ele>
        <time>2020-09-01T13:10:02Z</time>
      </trkpt>
      <trkpt lat="47.97279" lon="0.40602">
        <ele>129</ele>
        <time>2020-09-01T13:10:08Z</time>
      </trkpt>
      <trkpt lat="47.97269" lon="0.40602">
        <ele>130</ele>
        <time>2020-09-01T13:10:16Z</time>
      </trkpt>
      <trkpt lat="47.9726" lon="0.40607">
        <ele>128</ele>
        <time>2020-09-01T13:10:24Z</time>
      </trkpt>
      <trkpt lat="47.9725" lon="0.40609">
        <ele>128</ele>
        <time>2020-09-01T13:10:31Z</time>
      </trkpt>
      <trkpt lat="47.97241" lon="0.40614">
        <ele>127</ele>
        <time>2020-09-01T13:10:38Z</time>
      </trkpt>
      <trkpt lat="47.97232" lon="0.40619">
        <ele>127</ele>
        <time>2020-09-01T13:10:45Z</time>
      </trkpt>
      <trkpt lat="47.97223" lon="0.40624">
        <ele>128</ele>
        <time>2020-09-01T13:10:53Z</time>
      </trkpt>
      <trkpt lat="47.97214" lon="0.40626">
        <ele>128</ele>
        <time>2020-09-01T13:11:01Z</time>
      </trkpt>
      <trkpt lat="47.97205" lon="0.40631">
        <ele>129</ele>
        <time>2020-09-01T13:11:08Z</time>
      </trkpt>
      <trkpt lat="47.97195" lon="0.40636">
        <ele>129</ele>
        <time>2020-09-01T13:11:16Z</time>
      </trkpt>
      <trkpt lat="47.97186" lon="0.40638">
        <ele>130</ele>
        <time>2020-09-01T13:11:24Z</time>
      </trkpt>
      <trkpt lat="47.97177" lon="0.40644">
        <ele>129</ele>
        <time>2020-09-01T13:11:32Z</time>
      </trkpt>
      <trkpt lat="47.97167" lon="0.40647">
        <ele>128</ele>
        <time>2020-09-01T13:11:40Z</time>
      </trkpt>
      <trkpt lat="47.97157" lon="0.40649">
        <ele>127</ele>
        <time>2020-09-01T13:11:48Z</time>
      </trkpt>
      <trkpt lat="47.97148" lon="0.40649">
        <ele>128</ele>
        <time>2020-09-01T13:11:58Z</time>
      </trkpt>
      <trkpt lat="47.97138" lon="0.40643">
        <ele>129</ele>
        <time>2020-09-01T13:12:05Z</time>
      </trkpt>
      <trkpt lat="47.97129" lon="0.4064">
        <ele>128</ele>
        <time>2020-09-01T13:12:14Z</time>
      </trkpt>
      <trkpt lat="47.9712" lon="0.40637">
        <ele>127</ele>
        <time>2020-09-01T13:12:22Z</time>
      </trkpt>
      <trkpt lat="47.9711" lon="0.40636">
        <ele>127</ele>
        <time>2020-09-01T13:12:30Z</time>
      </trkpt>
      <trkpt lat="47.97101" lon="0.40631">
        <ele>128</ele>
        <time>2020-09-01T13:12:38Z</time>
      </trkpt>
      <trkpt lat="47.97093" lon="0.40624">
        <ele>131</ele>
        <time>2020-09-01T13:12:48Z</time>
      </trkpt>
      <trkpt lat="47.97083" lon="0.40624">
        <ele>133</ele>
        <time>2020-09-01T13:12:56Z</time>
      </trkpt>
      <trkpt lat="47.97073" lon="0.40625">
        <ele>133</ele>
        <time>2020-09-01T13:13:07Z</time>
      </trkpt>
      <trkpt lat="47.97065" lon="0.40621">
        <ele>135</ele>
        <time>2020-09-01T13:13:15Z</time>
      </trkpt>
      <trkpt lat="47.97055" lon="0.40618">
        <ele>134</ele>
        <time>2020-09-01T13:13:25Z</time>
      </trkpt>
      <trkpt lat="47.97046" lon="0.40617">
        <ele>134</ele>
        <time>2020-09-01T13:13:33Z</time>
      </trkpt>
      <trkpt lat="47.97036" lon="0.40617">
        <ele>133</ele>
        <time>2020-09-01T13:13:41Z</time>
      </trkpt>
      <trkpt lat="47.97027" lon="0.40609">
        <ele>134</ele>
        <time>2020-09-01T13:13:49Z</time>
      </trkpt>
      <trkpt lat="47.97018" lon="0.40606">
        <ele>136</ele>
        <time>2020-09-01T13:13:57Z</time>
      </trkpt>
      <trkpt lat="47.97009" lon="0.40599">
        <ele>135</ele>
        <time>2020-09-01T13:14:03Z</time>
      </trkpt>
      <trkpt lat="47.97001" lon="0.40593">
        <ele>138</ele>
        <time>2020-09-01T13:14:11Z</time>
      </trkpt>
      <trkpt lat="47.96992" lon="0.40589">
        <ele>138</ele>
        <time>2020-09-01T13:14:19Z</time>
      </trkpt>
      <trkpt lat="47.96985" lon="0.4058">
        <ele>141</ele>
        <time>2020-09-01T13:14:28Z</time>
      </trkpt>
      <trkpt lat="47.96975" lon="0.40575">
        <ele>141</ele>
        <time>2020-09-01T13:14:36Z</time>
      </trkpt>
      <trkpt lat="47.96966" lon="0.4057">
        <ele>140</ele>
        <time>2020-09-01T13:14:44Z</time>
      </trkpt>
      <trkpt lat="47.96957" lon="0.40568">
        <ele>139</ele>
        <time>2020-09-01T13:14:52Z</time>
      </trkpt>
      <trkpt lat="47.96947" lon="0.40567">
        <ele>137</ele>
        <time>2020-09-01T13:14:59Z</time>
      </trkpt>
      <trkpt lat="47.96938" lon="0.40567">
        <ele>136</ele>
        <time>2020-09-01T13:15:09Z</time>
      </trkpt>
      <trkpt lat="47.96928" lon="0.40567">
        <ele>133</ele>
        <time>2020-09-01T13:15:16Z</time>
      </trkpt>
      <trkpt lat="47.96918" lon="0.40568">
        <ele>131</ele>
        <time>2020-09-01T13:15:25Z</time>
      </trkpt>
      <trkpt lat="47.96909" lon="0.40564">
        <ele>130</ele>
        <time>2020-09-01T13:15:34Z</time>
      </trkpt>
      <trkpt lat="47.969" lon="0.40566">
        <ele>130</ele>
        <time>2020-09-01T13:15:44Z</time>
      </trkpt>
      <trkpt lat="47.9689" lon="0.40567">
        <ele>128</ele>
        <time>2020-09-01T13:15:51Z</time>
      </trkpt>
      <trkpt lat="47.9688" lon="0.40569">
        <ele>129</ele>
        <time>2020-09-01T13:15:57Z</time>
      </trkpt>
      <trkpt lat="47.96871" lon="0.40567">
        <ele>130</ele>
        <time>2020-09-01T13:16:07Z</time>
      </trkpt>
      <trkpt lat="47.96862" lon="0.40569">
        <ele>128</ele>
        <time>2020-09-01T13:16:14Z</time>
      </trkpt>
      <trkpt lat="47.96852" lon="0.40571">
        <ele>127</ele>
        <time>2020-09-01T13:16:20Z</time>
      </trkpt>
      <trkpt lat="47.96842" lon="0.4057">
        <ele>129</ele>
        <time>2020-09-01T13:16:28Z</time>
      </trkpt>
      <trkpt lat="47.96833" lon="0.40569">
        <ele>130</ele>
        <time>2020-09-01T13:16:36Z</time>
      </trkpt>
      <trkpt lat="47.96823" lon="0.40567">
        <ele>130</ele>
        <time>2020-09-01T13:16:44Z</time>
      </trkpt>
      <trkpt lat="47.96814" lon="0.40571">
        <ele>129</ele>
        <time>2020-09-01T13:16:52Z</time>
      </trkpt>
      <trkpt lat="47.96805" lon="0.40571">
        <ele>128</ele>
        <time>2020-09-01T13:17:00Z</time>
      </trkpt>
      <trkpt lat="47.96796" lon="0.40573">
        <ele>127</ele>
        <time>2020-09-01T13:17:09Z</time>
      </trkpt>
      <trkpt lat="47.96787" lon="0.40574">
        <ele>126</ele>
        <time>2020-09-01T13:17:15Z</time>
      </trkpt>
      <trkpt lat="47.96777" lon="0.40574">
        <ele>125</ele>
        <time>2020-09-01T13:17:22Z</time>
      </trkpt>
      <trkpt lat="47.96767" lon="0.40577">
        <ele>125</ele>
        <time>2020-09-01T13:17:29Z</time>
      </trkpt>
      <trkpt lat="47.96758" lon="0.40574">
        <ele>128</ele>
        <time>2020-09-01T13:17:37Z</time>
      </trkpt>
      <trkpt lat="47.96751" lon="0.40565">
        <ele>130</ele>
        <time>2020-09-01T13:17:46Z</time>
      </trkpt>
      <trkpt lat="47.96746" lon="0.40553">
        <ele>131</ele>
        <time>2020-09-01T13:17:53Z</time>
      </trkpt>
      <trkpt lat="47.9674" lon="0.40541">
        <ele>134</ele>
        <time>2020-09-01T13:18:01Z</time>
      </trkpt>
      <trkpt lat="47.96736" lon="0.40529">
        <ele>134</ele>
        <time>2020-09-01T13:18:08Z</time>
      </trkpt>
      <trkpt lat="47.96732" lon="0.40515">
        <ele>133</ele>
        <time>2020-09-01T13:18:16Z</time>
      </trkpt>
      <trkpt lat="47.96727" lon="0.40503">
        <ele>134</ele>
        <time>2020-09-01T13:18:25Z</time>
      </trkpt>
      <trkpt lat="47.9672" lon="0.40493">
        <ele>134</ele>
        <time>2020-09-01T13:18:34Z</time>
      </trkpt>
      <trkpt lat="47.96713" lon="0.40483">
        <ele>134</ele>
        <time>2020-09-01T13:18:42Z</time>
      </trkpt>
      <trkpt lat="47.96708" lon="0.40471">
        <ele>134</ele>
        <time>2020-09-01T13:18:50Z</time>
      </trkpt>
      <trkpt lat="47.96701" lon="0.40461">
        <ele>134</ele>
        <time>2020-09-01T13:18:57Z</time>
      </trkpt>
      <trkpt lat="47.96696" lon="0.40448">
        <ele>133</ele>
        <time>2020-09-01T13:19:05Z</time>
      </trkpt>
      <trkpt lat="47.96691" lon="0.40435">
        <ele>131</ele>
        <time>2020-09-01T13:19:12Z</time>
      </trkpt>
      <trkpt lat="47.96685" lon="0.40424">
        <ele>129</ele>
        <time>2020-09-01T13:19:19Z</time>
      </trkpt>
      <trkpt lat="47.96679" lon="0.40413">
        <ele>130</ele>
        <time>2020-09-01T13:19:25Z</time>
      </trkpt>
      <trkpt lat="47.96673" lon="0.40401">
        <ele>131</ele>
        <time>2020-09-01T13:19:34Z</time>
      </trkpt>
      <trkpt lat="47.96668" lon="0.40388">
        <ele>132</ele>
        <time>2020-09-01T13:19:41Z</time>
      </trkpt>
      <trkpt lat="47.96663" lon="0.40376">
        <ele>133</ele>
        <time>2020-09-01T13:19:48Z</time>
      </trkpt>
      <trkpt lat="47.96658" lon="0.40365">
        <ele>133</ele>
        <time>2020-09-01T13:19:56Z</time>
      </trkpt>
      <trkpt lat="47.96652" lon="0.40354">
        <ele>132</ele>
        <time>2020-09-01T13:20:04Z</time>
      </trkpt>
      <trkpt lat="47.96647" lon="0.40341">
        <ele>131</ele>
        <time>2020-09-01T13:20:12Z</time>
      </trkpt>
      <trkpt lat="47.9664" lon="0.40331">
        <ele>131</ele>
        <time>2020-09-01T13:20:20Z</time>
      </trkpt>
      <trkpt lat="47.96632" lon="0.4032">
        <ele>129</ele>
        <time>2020-09-01T13:20:27Z</time>
      </trkpt>
      <trkpt lat="47.96624" lon="0.40314">
        <ele>129</ele>
        <time>2020-09-01T13:20:34Z</time>
      </trkpt>
      <trkpt lat="47.96615" lon="0.40308">
        <ele>129</ele>
        <time>2020-09-01T13:20:42Z</time>
      </trkpt>
      <trkpt lat="47.96608" lon="0.40299">
        <ele>127</ele>
        <time>2020-09-01T13:20:49Z</time>
      </trkpt>
      <trkpt lat="47.96602" lon="0.40288">
        <ele>131</ele>
        <time>2020-09-01T13:21:05Z</time>
      </trkpt>
      <trkpt lat="47.96593" lon="0.40287">
        <ele>128</ele>
        <time>2020-09-01T13:21:14Z</time>
      </trkpt>
      <trkpt lat="47.96584" lon="0.40293">
        <ele>128</ele>
        <time>2020-09-01T13:21:23Z</time>
      </trkpt>
      <trkpt lat="47.96575" lon="0.40298">
        <ele>126</ele>
        <time>2020-09-01T13:21:31Z</time>
      </trkpt>
      <trkpt lat="47.96566" lon="0.40301">
        <ele>123</ele>
        <time>2020-09-01T13:21:39Z</time>
      </trkpt>
      <trkpt lat="47.96557" lon="0.40304">
        <ele>121</ele>
        <time>2020-09-01T13:21:47Z</time>
      </trkpt>
      <trkpt lat="47.96547" lon="0.40307">
        <ele>122</ele>
        <time>2020-09-01T13:21:55Z</time>
      </trkpt>
      <trkpt lat="47.96537" lon="0.40313">
        <ele>123</ele>
        <time>2020-09-01T13:22:03Z</time>
      </trkpt>
      <trkpt lat="47.96529" lon="0.40318">
        <ele>123</ele>
        <time>2020-09-01T13:22:10Z</time>
      </trkpt>
      <trkpt lat="47.96519" lon="0.40322">
        <ele>124</ele>
        <time>2020-09-01T13:22:19Z</time>
      </trkpt>
      <trkpt lat="47.9651" lon="0.40325">
        <ele>122</ele>
        <time>2020-09-01T13:22:27Z</time>
      </trkpt>
      <trkpt lat="47.96501" lon="0.4033">
        <ele>122</ele>
        <time>2020-09-01T13:22:34Z</time>
      </trkpt>
      <trkpt lat="47.96491" lon="0.40333">
        <ele>122</ele>
        <time>2020-09-01T13:22:44Z</time>
      </trkpt>
      <trkpt lat="47.96483" lon="0.4034">
        <ele>122</ele>
        <time>2020-09-01T13:22:50Z</time>
      </trkpt>
      <trkpt lat="47.96476" lon="0.40331">
        <ele>123</ele>
        <time>2020-09-01T13:23:03Z</time>
      </trkpt>
      <trkpt lat="47.96474" lon="0.40317">
        <ele>125</ele>
        <time>2020-09-01T13:23:13Z</time>
      </trkpt>
      <trkpt lat="47.96472" lon="0.40302">
        <ele>126</ele>
        <time>2020-09-01T13:23:20Z</time>
      </trkpt>
      <trkpt lat="47.96468" lon="0.40288">
        <ele>129</ele>
        <time>2020-09-01T13:23:27Z</time>
      </trkpt>
      <trkpt lat="47.96465" lon="0.40275">
        <ele>131</ele>
        <time>2020-09-01T13:23:35Z</time>
      </trkpt>
      <trkpt lat="47.96462" lon="0.40262">
        <ele>134</ele>
        <time>2020-09-01T13:23:43Z</time>
      </trkpt>
      <trkpt lat="47.9646" lon="0.40248">
        <ele>134</ele>
        <time>2020-09-01T13:23:50Z</time>
      </trkpt>
      <trkpt lat="47.9646" lon="0.40234">
        <ele>134</ele>
        <time>2020-09-01T13:23:57Z</time>
      </trkpt>
      <trkpt lat="47.96456" lon="0.40219">
        <ele>134</ele>
        <time>2020-09-01T13:24:06Z</time>
      </trkpt>
      <trkpt lat="47.96452" lon="0.40205">
        <ele>137</ele>
        <time>2020-09-01T13:24:14Z</time>
      </trkpt>
      <trkpt lat="47.9645" lon="0.40191">
        <ele>136</ele>
        <time>2020-09-01T13:24:21Z</time>
      </trkpt>
      <trkpt lat="47.96446" lon="0.40177">
        <ele>137</ele>
        <time>2020-09-01T13:24:29Z</time>
      </trkpt>
      <trkpt lat="47.96442" lon="0.40163">
        <ele>137</ele>
        <time>2020-09-01T13:24:38Z</time>
      </trkpt>
      <trkpt lat="47.96439" lon="0.40149">
        <ele>136</ele>
        <time>2020-09-01T13:24:45Z</time>
      </trkpt>
      <trkpt lat="47.96436" lon="0.40136">
        <ele>136</ele>
        <time>2020-09-01T13:24:53Z</time>
      </trkpt>
      <trkpt lat="47.96432" lon="0.40123">
        <ele>136</ele>
        <time>2020-09-01T13:25:01Z</time>
      </trkpt>
      <trkpt lat="47.9643" lon="0.4011">
        <ele>136</ele>
        <time>2020-09-01T13:25:08Z</time>
      </trkpt>
      <trkpt lat="47.96426" lon="0.40097">
        <ele>137</ele>
        <time>2020-09-01T13:25:16Z</time>
      </trkpt>
      <trkpt lat="47.96421" lon="0.40086">
        <ele>137</ele>
        <time>2020-09-01T13:25:23Z</time>
      </trkpt>
      <trkpt lat="47.96415" lon="0.40073">
        <ele>138</ele>
        <time>2020-09-01T13:25:31Z</time>
      </trkpt>
      <trkpt lat="47.9641" lon="0.4006">
        <ele>137</ele>
        <time>2020-09-01T13:25:39Z</time>
      </trkpt>
      <trkpt lat="47.96404" lon="0.40048">
        <ele>136</ele>
        <time>2020-09-01T13:25:47Z</time>
      </trkpt>
      <trkpt lat="47.96396" lon="0.40037">
        <ele>136</ele>
        <time>2020-09-01T13:25:55Z</time>
      </trkpt>
      <trkpt lat="47.96391" lon="0.40026">
        <ele>136</ele>
        <time>2020-09-01T13:26:03Z</time>
      </trkpt>
      <trkpt lat="47.96386" lon="0.40012">
        <ele>136</ele>
        <time>2020-09-01T13:26:12Z</time>
      </trkpt>
      <trkpt lat="47.9638" lon="0.40001">
        <ele>134</ele>
        <time>2020-09-01T13:26:20Z</time>
      </trkpt>
      <trkpt lat="47.96374" lon="0.39991">
        <ele>134</ele>
        <time>2020-09-01T13:26:27Z</time>
      </trkpt>
      <trkpt lat="47.96368" lon="0.3998">
        <ele>132</ele>
        <time>2020-09-01T13:26:34Z</time>
      </trkpt>
      <trkpt lat="47.96362" lon="0.3997">
        <ele>132</ele>
        <time>2020-09-01T13:26:44Z</time>
      </trkpt>
      <trkpt lat="47.96357" lon="0.39957">
        <ele>131</ele>
        <time>2020-09-01T13:26:52Z</time>
      </trkpt>
      <trkpt lat="47.96352" lon="0.39946">
        <ele>131</ele>
        <time>2020-09-01T13:26:59Z</time>
      </trkpt>
      <trkpt lat="47.96347" lon="0.39932">
        <ele>131</ele>
        <time>2020-09-01T13:27:06Z</time>
      </trkpt>
      <trkpt lat="47.96343" lon="0.39921">
        <ele>131</ele>
        <time>2020-09-01T13:27:12Z</time>
      </trkpt>
      <trkpt lat="47.96339" lon="0.39908">
        <ele>132</ele>
        <time>2020-09-01T13:27:21Z</time>
      </trkpt>
      <trkpt lat="47.96335" lon="0.39895">
        <ele>132</ele>
        <time>2020-09-01T13:27:29Z</time>
      </trkpt>
      <trkpt lat="47.96331" lon="0.39883">
        <ele>133</ele>
        <time>2020-09-01T13:27:35Z</time>
      </trkpt>
      <trkpt lat="47.96325" lon="0.39872">
        <ele>133</ele>
        <time>2020-09-01T13:27:41Z</time>
      </trkpt>
      <trkpt lat="47.96322" lon="0.3986">
        <ele>134</ele>
        <time>2020-09-01T13:27:49Z</time>
      </trkpt>
      <trkpt lat="47.96317" lon="0.39847">
        <ele>134</ele>
        <time>2020-09-01T13:27:57Z</time>
      </trkpt>
      <trkpt lat="47.96312" lon="0.39834">
        <ele>132</ele>
        <time>2020-09-01T13:28:05Z</time>
      </trkpt>
      <trkpt lat="47.96308" lon="0.39822">
        <ele>131</ele>
        <time>2020-09-01T13:28:12Z</time>
      </trkpt>
      <trkpt lat="47.96302" lon="0.39811">
        <ele>132</ele>
        <time>2020-09-01T13:28:19Z</time>
      </trkpt>
      <trkpt lat="47.96293" lon="0.39805">
        <ele>133</ele>
        <time>2020-09-01T13:28:26Z</time>
      </trkpt>
      <trkpt lat="47.96283" lon="0.3981">
        <ele>131</ele>
        <time>2020-09-01T13:28:34Z</time>
      </trkpt>
      <trkpt lat="47.96275" lon="0.39813">
        <ele>128</ele>
        <time>2020-09-01T13:28:44Z</time>
      </trkpt>
      <trkpt lat="47.96266" lon="0.39819">
        <ele>128</ele>
        <time>2020-09-01T13:28:51Z</time>
      </trkpt>
      <trkpt lat="47.96257" lon="0.39823">
        <ele>128</ele>
        <time>2020-09-01T13:28:58Z</time>
      </trkpt>
      <trkpt lat="47.96248" lon="0.39827">
        <ele>127</ele>
        <time>2020-09-01T13:29:05Z</time>
      </trkpt>
      <trkpt lat="47.96239" lon="0.39832">
        <ele>129</ele>
        <time>2020-09-01T13:29:13Z</time>
      </trkpt>
      <trkpt lat="47.9623" lon="0.39835">
        <ele>130</ele>
        <time>2020-09-01T13:29:21Z</time>
      </trkpt>
      <trkpt lat="47.9622" lon="0.39838">
        <ele>130</ele>
        <time>2020-09-01T13:29:28Z</time>
      </trkpt>
      <trkpt lat="47.96211" lon="0.39842">
        <ele>131</ele>
        <time>2020-09-01T13:29:36Z</time>
      </trkpt>
      <trkpt lat="47.96202" lon="0.39844">
        <ele>132</ele>
        <time>2020-09-01T13:29:43Z</time>
      </trkpt>
      <trkpt lat="47.96193" lon="0.39849">
        <ele>133</ele>
        <time>2020-09-01T13:29:50Z</time>
      </trkpt>
      <trkpt lat="47.96184" lon="0.39855">
        <ele>133</ele>
        <time>2020-09-01T13:29:58Z</time>
      </trkpt>
      <trkpt lat="47.96174" lon="0.39856">
        <ele>133</ele>
        <time>2020-09-01T13:30:06Z</time>
      </trkpt>
      <trkpt lat="47.96165" lon="0.3986">
        <ele>132</ele>
        <time>2020-09-01T13:30:14Z</time>
      </trkpt>
      <trkpt lat="47.96156" lon="0.39863">
        <ele>131</ele>
        <time>2020-09-01T13:30:22Z</time>
      </trkpt>
      <trkpt lat="47.96146" lon="0.39868">
        <ele>132</ele>
        <time>2020-09-01T13:30:31Z</time>
      </trkpt>
      <trkpt lat="47.96139" lon="0.3986">
        <ele>133</ele>
        <time>2020-09-01T13:30:44Z</time>
      </trkpt>
      <trkpt lat="47.9614" lon="0.39846">
        <ele>133</ele>
        <time>2020-09-01T13:30:51Z</time>
      </trkpt>
      <trkpt lat="47.96141" lon="0.39833">
        <ele>133</ele>
        <time>2020-09-01T13:30:59Z</time>
      </trkpt>
      <trkpt lat="47.96142" lon="0.39818">
        <ele>134</ele>
        <time>2020-09-01T13:31:09Z</time>
      </trkpt>
      <trkpt lat="47.96143" lon="0.39804">
        <ele>134</ele>
        <time>2020-09-01T13:31:16Z</time>
      </trkpt>
      <trkpt lat="47.96145" lon="0.3979">
        <ele>133</ele>
        <time>2020-09-01T13:31:24Z</time>
      </trkpt>
      <trkpt lat="47.96146" lon="0.39777">
        <ele>133</ele>
        <time>2020-09-01T13:31:32Z</time>
      </trkpt>
      <trkpt lat="47.96146" lon="0.39763">
        <ele>133</ele>
        <time>2020-09-01T13:31:40Z</time>
      </trkpt>
      <trkpt lat="47.96146" lon="0.39748">
        <ele>133</ele>
        <time>2020-09-01T13:31:49Z</time>
      </trkpt>
      <trkpt lat="47.96147" lon="0.39733">
        <ele>132</ele>
        <time>2020-09-01T13:31:57Z</time>
      </trkpt>
      <trkpt lat="47.96148" lon="0.39719">
        <ele>132</ele>
        <time>2020-09-01T13:32:05Z</time>
      </trkpt>
      <trkpt lat="47.96148" lon="0.39706">
        <ele>132</ele>
        <time>2020-09-01T13:32:13Z</time>
      </trkpt>
      <trkpt lat="47.9615" lon="0.39692">
        <ele>133</ele>
        <time>2020-09-01T13:32:21Z</time>
      </trkpt>
      <trkpt lat="47.96151" lon="0.39678">
        <ele>134</ele>
        <time>2020-09-01T13:32:29Z</time>
      </trkpt>
      <trkpt lat="47.96151" lon="0.39663">
        <ele>133</ele>
        <time>2020-09-01T13:32:37Z</time>
      </trkpt>
      <trkpt lat="47.96151" lon="0.39649">
        <ele>132</ele>
        <time>2020-09-01T13:32:47Z</time>
      </trkpt>
      <trkpt lat="47.96149" lon="0.39635">
        <ele>133</ele>
        <time>2020-09-01T13:32:55Z</time>
      </trkpt>
      <trkpt lat="47.96149" lon="0.3962">
        <ele>133</ele>
        <time>2020-09-01T13:33:03Z</time>
      </trkpt>
      <trkpt lat="47.96149" lon="0.39605">
        <ele>133</ele>
        <time>2020-09-01T13:33:10Z</time>
      </trkpt>
      <trkpt lat="47.9615" lon="0.39591">
        <ele>133</ele>
        <time>2020-09-01T13:33:18Z</time>
      </trkpt>
      <trkpt lat="47.96149" lon="0.39577">
        <ele>133</ele>
        <time>2020-09-01T13:33:26Z</time>
      </trkpt>
      <trkpt lat="47.96151" lon="0.39563">
        <ele>134</ele>
        <time>2020-09-01T13:33:34Z</time>
      </trkpt>
      <trkpt lat="47.96152" lon="0.39548">
        <ele>134</ele>
        <time>2020-09-01T13:33:41Z</time>
      </trkpt>
      <trkpt lat="47.96152" lon="0.39534">
        <ele>135</ele>
        <time>2020-09-01T13:33:48Z</time>
      </trkpt>
      <trkpt lat="47.96153" lon="0.39519">
        <ele>135</ele>
        <time>2020-09-01T13:33:57Z</time>
      </trkpt>
      <trkpt lat="47.96153" lon="0.39505">
        <ele>136</ele>
        <time>2020-09-01T13:34:06Z</time>
      </trkpt>
      <trkpt lat="47.96154" lon="0.39491">
        <ele>137</ele>
        <time>2020-09-01T13:34:14Z</time>
      </trkpt>
      <trkpt lat="47.96154" lon="0.39478">
        <ele>137</ele>
        <time>2020-09-01T13:34:21Z</time>
      </trkpt>
      <trkpt lat="47.96153" lon="0.39463">
        <ele>137</ele>
        <time>2020-09-01T13:34:29Z</time>
      </trkpt>
      <trkpt lat="47.96154" lon="0.39448">
        <ele>137</ele>
        <time>2020-09-01T13:34:37Z</time>
      </trkpt>
      <trkpt lat="47.96153" lon="0.39434">
        <ele>137</ele>
        <time>2020-09-01T13:34:45Z</time>
      </trkpt>
      <trkpt lat="47.96155" lon="0.3942">
        <ele>138</ele>
        <time>2020-09-01T13:34:54Z</time>
      </trkpt>
      <trkpt lat="47.96154" lon="0.39406">
        <ele>138</ele>
        <time>2020-09-01T13:35:01Z</time>
      </trkpt>
      <trkpt lat="47.96154" lon="0.39391">
        <ele>138</ele>
        <time>2020-09-01T13:35:09Z</time>
      </trkpt>
      <trkpt lat="47.96153" lon="0.39377">
        <ele>138</ele>
        <time>2020-09-01T13:35:17Z</time>
      </trkpt>
      <trkpt lat="47.96156" lon="0.39363">
        <ele>138</ele>
        <time>2020-09-01T13:35:26Z</time>
      </trkpt>
      <trkpt lat="47.96157" lon="0.39349">
        <ele>138</ele>
        <time>2020-09-01T13:35:35Z</time>
      </trkpt>
      <trkpt lat="47.96156" lon="0.39346">
        <ele>138</ele>
        <time>2020-09-01T13:35:51Z</time>
      </trkpt>
      <trkpt lat="47.96156" lon="0.39346">
        <ele>138</ele>
        <time>2020-09-01T13:35:51Z</time>
      </trkpt>
      <trkpt lat="47.96153" lon="0.39328">
        <ele>139</ele>
        <time>2020-09-01T13:36:22Z</time>
      </trkpt>
      <trkpt lat="47.96156" lon="0.39314">
        <ele>139</ele>
        <time>2020-09-01T13:36:35Z</time>
      </trkpt>
      <trkpt lat="47.96157" lon="0.39299">
        <ele>139</ele>
        <time>2020-09-01T13:36:45Z</time>
      </trkpt>
      <trkpt lat="47.9616" lon="0.39286">
        <ele>140</ele>
        <time>2020-09-01T13:36:57Z</time>
      </trkpt>
      <trkpt lat="47.96159" lon="0.39271">
        <ele>138</ele>
        <time>2020-09-01T13:37:08Z</time>
      </trkpt>
      <trkpt lat="47.96159" lon="0.39258">
        <ele>136</ele>
        <time>2020-09-01T13:37:21Z</time>
      </trkpt>
      <trkpt lat="47.96159" lon="0.39255">
        <ele>136</ele>
        <time>2020-09-01T13:37:32Z</time>
      </trkpt>
      <trkpt lat="47.96159" lon="0.39255">
        <ele>136</ele>
        <time>2020-09-01T13:37:32Z</time>
      </trkpt>
      <trkpt lat="47.96159" lon="0.39258">
        <ele>136</ele>
        <time>2020-09-01T13:38:29Z</time>
      </trkpt>
      <trkpt lat="47.96159" lon="0.39258">
        <ele>136</ele>
        <time>2020-09-01T13:38:29Z</time>
      </trkpt>
      <trkpt lat="47.9616" lon="0.39244">
        <ele>132</ele>
        <time>2020-09-01T13:49:58Z</time>
      </trkpt>
      <trkpt lat="47.96162" lon="0.3923">
        <ele>131</ele>
        <time>2020-09-01T13:50:08Z</time>
      </trkpt>
      <trkpt lat="47.96161" lon="0.39216">
        <ele>130</ele>
        <time>2020-09-01T13:50:16Z</time>
      </trkpt>
      <trkpt lat="47.96162" lon="0.39201">
        <ele>130</ele>
        <time>2020-09-01T13:50:25Z</time>
      </trkpt>
      <trkpt lat="47.96163" lon="0.39188">
        <ele>131</ele>
        <time>2020-09-01T13:50:32Z</time>
      </trkpt>
      <trkpt lat="47.96163" lon="0.39174">
        <ele>132</ele>
        <time>2020-09-01T13:50:40Z</time>
      </trkpt>
      <trkpt lat="47.96165" lon="0.3916">
        <ele>132</ele>
        <time>2020-09-01T13:50:49Z</time>
      </trkpt>
      <trkpt lat="47.96166" lon="0.39146">
        <ele>133</ele>
        <time>2020-09-01T13:50:57Z</time>
      </trkpt>
      <trkpt lat="47.96165" lon="0.39131">
        <ele>132</ele>
        <time>2020-09-01T13:51:06Z</time>
      </trkpt>
      <trkpt lat="47.96166" lon="0.39117">
        <ele>133</ele>
        <time>2020-09-01T13:51:14Z</time>
      </trkpt>
      <trkpt lat="47.96167" lon="0.39103">
        <ele>135</ele>
        <time>2020-09-01T13:51:22Z</time>
      </trkpt>
      <trkpt lat="47.96165" lon="0.39088">
        <ele>136</ele>
        <time>2020-09-01T13:51:30Z</time>
      </trkpt>
      <trkpt lat="47.96164" lon="0.39074">
        <ele>136</ele>
        <time>2020-09-01T13:51:37Z</time>
      </trkpt>
      <trkpt lat="47.96164" lon="0.39059">
        <ele>137</ele>
        <time>2020-09-01T13:51:46Z</time>
      </trkpt>
      <trkpt lat="47.96165" lon="0.39046">
        <ele>137</ele>
        <time>2020-09-01T13:51:54Z</time>
      </trkpt>
      <trkpt lat="47.96165" lon="0.39032">
        <ele>135</ele>
        <time>2020-09-01T13:52:02Z</time>
      </trkpt>
      <trkpt lat="47.96164" lon="0.39018">
        <ele>136</ele>
        <time>2020-09-01T13:52:10Z</time>
      </trkpt>
      <trkpt lat="47.96166" lon="0.39004">
        <ele>136</ele>
        <time>2020-09-01T13:52:18Z</time>
      </trkpt>
      <trkpt lat="47.96167" lon="0.38991">
        <ele>136</ele>
        <time>2020-09-01T13:52:27Z</time>
      </trkpt>
      <trkpt lat="47.96168" lon="0.38977">
        <ele>136</ele>
        <time>2020-09-01T13:52:34Z</time>
      </trkpt>
      <trkpt lat="47.96169" lon="0.38963">
        <ele>134</ele>
        <time>2020-09-01T13:52:42Z</time>
      </trkpt>
      <trkpt lat="47.96171" lon="0.3895">
        <ele>135</ele>
        <time>2020-09-01T13:52:50Z</time>
      </trkpt>
      <trkpt lat="47.96173" lon="0.38935">
        <ele>137</ele>
        <time>2020-09-01T13:52:59Z</time>
      </trkpt>
      <trkpt lat="47.96173" lon="0.3892">
        <ele>136</ele>
        <time>2020-09-01T13:53:07Z</time>
      </trkpt>
      <trkpt lat="47.96174" lon="0.38906">
        <ele>136</ele>
        <time>2020-09-01T13:53:16Z</time>
      </trkpt>
      <trkpt lat="47.96173" lon="0.38892">
        <ele>137</ele>
        <time>2020-09-01T13:53:23Z</time>
      </trkpt>
      <trkpt lat="47.96172" lon="0.38878">
        <ele>138</ele>
        <time>2020-09-01T13:53:31Z</time>
      </trkpt>
      <trkpt lat="47.96174" lon="0.38863">
        <ele>139</ele>
        <time>2020-09-01T13:53:40Z</time>
      </trkpt>
      <trkpt lat="47.96171" lon="0.38849">
        <ele>138</ele>
        <time>2020-09-01T13:53:49Z</time>
      </trkpt>
      <trkpt lat="47.9617" lon="0.38834">
        <ele>138</ele>
        <time>2020-09-01T13:53:57Z</time>
      </trkpt>
      <trkpt lat="47.96169" lon="0.3882">
        <ele>138</ele>
        <time>2020-09-01T13:54:05Z</time>
      </trkpt>
      <trkpt lat="47.9617" lon="0.38805">
        <ele>138</ele>
        <time>2020-09-01T13:54:12Z</time>
      </trkpt>
      <trkpt lat="47.9617" lon="0.38792">
        <ele>140</ele>
        <time>2020-09-01T13:54:20Z</time>
      </trkpt>
      <trkpt lat="47.96168" lon="0.38779">
        <ele>139</ele>
        <time>2020-09-01T13:54:30Z</time>
      </trkpt>
      <trkpt lat="47.96168" lon="0.38763">
        <ele>138</ele>
        <time>2020-09-01T13:54:37Z</time>
      </trkpt>
      <trkpt lat="47.96168" lon="0.38749">
        <ele>138</ele>
        <time>2020-09-01T13:54:44Z</time>
      </trkpt>
      <trkpt lat="47.96169" lon="0.38736">
        <ele>137</ele>
        <time>2020-09-01T13:54:52Z</time>
      </trkpt>
      <trkpt lat="47.96169" lon="0.38722">
        <ele>137</ele>
        <time>2020-09-01T13:54:59Z</time>
      </trkpt>
      <trkpt lat="47.9617" lon="0.38707">
        <ele>137</ele>
        <time>2020-09-01T13:55:07Z</time>
      </trkpt>
      <trkpt lat="47.96171" lon="0.38693">
        <ele>138</ele>
        <time>2020-09-01T13:55:15Z</time>
      </trkpt>
      <trkpt lat="47.96171" lon="0.3868">
        <ele>137</ele>
        <time>2020-09-01T13:55:22Z</time>
      </trkpt>
      <trkpt lat="47.96171" lon="0.38665">
        <ele>139</ele>
        <time>2020-09-01T13:55:31Z</time>
      </trkpt>
      <trkpt lat="47.96171" lon="0.3865">
        <ele>139</ele>
        <time>2020-09-01T13:55:39Z</time>
      </trkpt>
      <trkpt lat="47.96172" lon="0.38635">
        <ele>139</ele>
        <time>2020-09-01T13:55:46Z</time>
      </trkpt>
      <trkpt lat="47.96172" lon="0.3862">
        <ele>138</ele>
        <time>2020-09-01T13:55:54Z</time>
      </trkpt>
      <trkpt lat="47.96171" lon="0.38607">
        <ele>139</ele>
        <time>2020-09-01T13:56:00Z</time>
      </trkpt>
      <trkpt lat="47.96169" lon="0.38592">
        <ele>139</ele>
        <time>2020-09-01T13:56:08Z</time>
      </trkpt>
      <trkpt lat="47.9617" lon="0.38578">
        <ele>138</ele>
        <time>2020-09-01T13:56:15Z</time>
      </trkpt>
      <trkpt lat="47.9617" lon="0.38563">
        <ele>137</ele>
        <time>2020-09-01T13:56:24Z</time>
      </trkpt>
      <trkpt lat="47.9617" lon="0.38549">
        <ele>138</ele>
        <time>2020-09-01T13:56:31Z</time>
      </trkpt>
      <trkpt lat="47.9617" lon="0.38534">
        <ele>138</ele>
        <time>2020-09-01T13:56:39Z</time>
      </trkpt>
      <trkpt lat="47.96169" lon="0.3852">
        <ele>139</ele>
        <time>2020-09-01T13:56:45Z</time>
      </trkpt>
      <trkpt lat="47.96168" lon="0.38506">
        <ele>137</ele>
        <time>2020-09-01T13:56:52Z</time>
      </trkpt>
      <trkpt lat="47.96167" lon="0.38493">
        <ele>135</ele>
        <time>2020-09-01T13:56:59Z</time>
      </trkpt>
      <trkpt lat="47.96165" lon="0.38478">
        <ele>134</ele>
        <time>2020-09-01T13:57:08Z</time>
      </trkpt>
      <trkpt lat="47.96164" lon="0.38464">
        <ele>135</ele>
        <time>2020-09-01T13:57:16Z</time>
      </trkpt>
      <trkpt lat="47.96164" lon="0.38449">
        <ele>136</ele>
        <time>2020-09-01T13:57:24Z</time>
      </trkpt>
      <trkpt lat="47.96164" lon="0.38435">
        <ele>138</ele>
        <time>2020-09-01T13:57:32Z</time>
      </trkpt>
      <trkpt lat="47.96164" lon="0.38421">
        <ele>137</ele>
        <time>2020-09-01T13:57:39Z</time>
      </trkpt>
      <trkpt lat="47.96166" lon="0.38407">
        <ele>138</ele>
        <time>2020-09-01T13:57:47Z</time>
      </trkpt>
      <trkpt lat="47.96167" lon="0.38393">
        <ele>137</ele>
        <time>2020-09-01T13:57:54Z</time>
      </trkpt>
      <trkpt lat="47.96166" lon="0.38378">
        <ele>138</ele>
        <time>2020-09-01T13:58:02Z</time>
      </trkpt>
      <trkpt lat="47.96164" lon="0.38365">
        <ele>137</ele>
        <time>2020-09-01T13:58:10Z</time>
      </trkpt>
      <trkpt lat="47.96164" lon="0.38351">
        <ele>137</ele>
        <time>2020-09-01T13:58:17Z</time>
      </trkpt>
      <trkpt lat="47.96164" lon="0.38336">
        <ele>137</ele>
        <time>2020-09-01T13:58:25Z</time>
      </trkpt>
      <trkpt lat="47.96162" lon="0.38322">
        <ele>138</ele>
        <time>2020-09-01T13:58:34Z</time>
      </trkpt>
      <trkpt lat="47.96161" lon="0.38308">
        <ele>137</ele>
        <time>2020-09-01T13:58:42Z</time>
      </trkpt>
      <trkpt lat="47.96161" lon="0.38293">
        <ele>135</ele>
        <time>2020-09-01T13:58:52Z</time>
      </trkpt>
      <trkpt lat="47.96162" lon="0.38279">
        <ele>134</ele>
        <time>2020-09-01T13:59:01Z</time>
      </trkpt>
      <trkpt lat="47.9616" lon="0.38264">
        <ele>133</ele>
        <time>2020-09-01T13:59:10Z</time>
      </trkpt>
      <trkpt lat="47.96161" lon="0.3825">
        <ele>132</ele>
        <time>2020-09-01T13:59:18Z</time>
      </trkpt>
      <trkpt lat="47.9616" lon="0.38237">
        <ele>132</ele>
        <time>2020-09-01T13:59:26Z</time>
      </trkpt>
      <trkpt lat="47.96159" lon="0.38222">
        <ele>131</ele>
        <time>2020-09-01T13:59:34Z</time>
      </trkpt>
      <trkpt lat="47.96159" lon="0.38207">
        <ele>131</ele>
        <time>2020-09-01T13:59:43Z</time>
      </trkpt>
      <trkpt lat="47.9616" lon="0.38193">
        <ele>132</ele>
        <time>2020-09-01T13:59:51Z</time>
      </trkpt>
      <trkpt lat="47.9616" lon="0.38178">
        <ele>131</ele>
        <time>2020-09-01T13:59:58Z</time>
      </trkpt>
      <trkpt lat="47.96159" lon="0.38164">
        <ele>131</ele>
        <time>2020-09-01T14:00:06Z</time>
      </trkpt>
      <trkpt lat="47.9616" lon="0.3815">
        <ele>130</ele>
        <time>2020-09-01T14:00:13Z</time>
      </trkpt>
      <trkpt lat="47.96162" lon="0.38137">
        <ele>129</ele>
        <time>2020-09-01T14:00:20Z</time>
      </trkpt>
      <trkpt lat="47.96161" lon="0.38122">
        <ele>130</ele>
        <time>2020-09-01T14:00:27Z</time>
      </trkpt>
      <trkpt lat="47.96161" lon="0.38108">
        <ele>132</ele>
        <time>2020-09-01T14:00:37Z</time>
      </trkpt>
      <trkpt lat="47.96161" lon="0.38093">
        <ele>131</ele>
        <time>2020-09-01T14:00:46Z</time>
      </trkpt>
      <trkpt lat="47.96161" lon="0.38079">
        <ele>131</ele>
        <time>2020-09-01T14:00:53Z</time>
      </trkpt>
      <trkpt lat="47.9616" lon="0.38064">
        <ele>131</ele>
        <time>2020-09-01T14:01:02Z</time>
      </trkpt>
      <trkpt lat="47.9616" lon="0.3805">
        <ele>130</ele>
        <time>2020-09-01T14:01:10Z</time>
      </trkpt>
      <trkpt lat="47.9616" lon="0.38036">
        <ele>130</ele>
        <time>2020-09-01T14:01:18Z</time>
      </trkpt>
      <trkpt lat="47.9616" lon="0.38021">
        <ele>130</ele>
        <time>2020-09-01T14:01:26Z</time>
      </trkpt>
      <trkpt lat="47.96159" lon="0.38006">
        <ele>129</ele>
        <time>2020-09-01T14:01:35Z</time>
      </trkpt>
      <trkpt lat="47.96159" lon="0.37992">
        <ele>130</ele>
        <time>2020-09-01T14:01:43Z</time>
      </trkpt>
      <trkpt lat="47.96159" lon="0.37978">
        <ele>130</ele>
        <time>2020-09-01T14:01:50Z</time>
      </trkpt>
      <trkpt lat="47.96159" lon="0.37965">
        <ele>130</ele>
        <time>2020-09-01T14:01:59Z</time>
      </trkpt>
      <trkpt lat="47.9616" lon="0.37951">
        <ele>130</ele>
        <time>2020-09-01T14:02:06Z</time>
      </trkpt>
      <trkpt lat="47.96159" lon="0.37937">
        <ele>130</ele>
        <time>2020-09-01T14:02:13Z</time>
      </trkpt>
      <trkpt lat="47.96158" lon="0.37924">
        <ele>131</ele>
        <time>2020-09-01T14:02:21Z</time>
      </trkpt>
      <trkpt lat="47.96157" lon="0.37909">
        <ele>131</ele>
        <time>2020-09-01T14:02:29Z</time>
      </trkpt>
      <trkpt lat="47.96158" lon="0.37895">
        <ele>132</ele>
        <time>2020-09-01T14:02:36Z</time>
      </trkpt>
      <trkpt lat="47.96159" lon="0.37881">
        <ele>132</ele>
        <time>2020-09-01T14:02:44Z</time>
      </trkpt>
      <trkpt lat="47.96161" lon="0.37867">
        <ele>131</ele>
        <time>2020-09-01T14:02:52Z</time>
      </trkpt>
      <trkpt lat="47.96163" lon="0.37853">
        <ele>132</ele>
        <time>2020-09-01T14:03:00Z</time>
      </trkpt>
      <trkpt lat="47.96164" lon="0.37839">
        <ele>132</ele>
        <time>2020-09-01T14:03:08Z</time>
      </trkpt>
      <trkpt lat="47.96166" lon="0.37824">
        <ele>131</ele>
        <time>2020-09-01T14:03:17Z</time>
      </trkpt>
      <trkpt lat="47.96168" lon="0.37811">
        <ele>132</ele>
        <time>2020-09-01T14:03:24Z</time>
      </trkpt>
      <trkpt lat="47.9617" lon="0.37797">
        <ele>132</ele>
        <time>2020-09-01T14:03:33Z</time>
      </trkpt>
      <trkpt lat="47.96172" lon="0.37783">
        <ele>132</ele>
        <time>2020-09-01T14:03:41Z</time>
      </trkpt>
      <trkpt lat="47.96174" lon="0.37769">
        <ele>133</ele>
        <time>2020-09-01T14:03:50Z</time>
      </trkpt>
      <trkpt lat="47.96176" lon="0.37755">
        <ele>132</ele>
        <time>2020-09-01T14:03:58Z</time>
      </trkpt>
      <trkpt lat="47.96178" lon="0.37741">
        <ele>133</ele>
        <time>2020-09-01T14:04:05Z</time>
      </trkpt>
      <trkpt lat="47.9618" lon="0.37728">
        <ele>132</ele>
        <time>2020-09-01T14:04:13Z</time>
      </trkpt>
      <trkpt lat="47.9618" lon="0.37714">
        <ele>132</ele>
        <time>2020-09-01T14:04:21Z</time>
      </trkpt>
      <trkpt lat="47.96181" lon="0.377">
        <ele>130</ele>
        <time>2020-09-01T14:04:29Z</time>
      </trkpt>
      <trkpt lat="47.96184" lon="0.37687">
        <ele>129</ele>
        <time>2020-09-01T14:04:37Z</time>
      </trkpt>
      <trkpt lat="47.96186" lon="0.37673">
        <ele>129</ele>
        <time>2020-09-01T14:04:46Z</time>
      </trkpt>
      <trkpt lat="47.96188" lon="0.3766">
        <ele>128</ele>
        <time>2020-09-01T14:04:53Z</time>
      </trkpt>
      <trkpt lat="47.9619" lon="0.37645">
        <ele>128</ele>
        <time>2020-09-01T14:05:01Z</time>
      </trkpt>
      <trkpt lat="47.96193" lon="0.37632">
        <ele>127</ele>
        <time>2020-09-01T14:05:08Z</time>
      </trkpt>
      <trkpt lat="47.96194" lon="0.37619">
        <ele>128</ele>
        <time>2020-09-01T14:05:16Z</time>
      </trkpt>
      <trkpt lat="47.96196" lon="0.37605">
        <ele>129</ele>
        <time>2020-09-01T14:05:24Z</time>
      </trkpt>
      <trkpt lat="47.96196" lon="0.37591">
        <ele>130</ele>
        <time>2020-09-01T14:05:31Z</time>
      </trkpt>
      <trkpt lat="47.96198" lon="0.37576">
        <ele>129</ele>
        <time>2020-09-01T14:05:39Z</time>
      </trkpt>
      <trkpt lat="47.96198" lon="0.37562">
        <ele>131</ele>
        <time>2020-09-01T14:05:47Z</time>
      </trkpt>
      <trkpt lat="47.96198" lon="0.37548">
        <ele>131</ele>
        <time>2020-09-01T14:05:56Z</time>
      </trkpt>
      <trkpt lat="47.962" lon="0.37534">
        <ele>130</ele>
        <time>2020-09-01T14:06:05Z</time>
      </trkpt>
      <trkpt lat="47.96202" lon="0.37519">
        <ele>129</ele>
        <time>2020-09-01T14:06:13Z</time>
      </trkpt>
      <trkpt lat="47.96204" lon="0.37505">
        <ele>129</ele>
        <time>2020-09-01T14:06:22Z</time>
      </trkpt>
      <trkpt lat="47.96206" lon="0.37492">
        <ele>130</ele>
        <time>2020-09-01T14:06:29Z</time>
      </trkpt>
      <trkpt lat="47.96209" lon="0.37478">
        <ele>129</ele>
        <time>2020-09-01T14:06:38Z</time>
      </trkpt>
      <trkpt lat="47.96212" lon="0.37464">
        <ele>130</ele>
        <time>2020-09-01T14:06:45Z</time>
      </trkpt>
      <trkpt lat="47.96213" lon="0.37451">
        <ele>131</ele>
        <time>2020-09-01T14:06:54Z</time>
      </trkpt>
      <trkpt lat="47.96215" lon="0.37436">
        <ele>133</ele>
        <time>2020-09-01T14:07:03Z</time>
      </trkpt>
      <trkpt lat="47.96217" lon="0.37422">
        <ele>133</ele>
        <time>2020-09-01T14:07:11Z</time>
      </trkpt>
      <trkpt lat="47.96219" lon="0.37409">
        <ele>131</ele>
        <time>2020-09-01T14:07:19Z</time>
      </trkpt>
      <trkpt lat="47.9622" lon="0.37395">
        <ele>131</ele>
        <time>2020-09-01T14:07:27Z</time>
      </trkpt>
      <trkpt lat="47.96222" lon="0.37381">
        <ele>131</ele>
        <time>2020-09-01T14:07:34Z</time>
      </trkpt>
      <trkpt lat="47.96221" lon="0.37368">
        <ele>130</ele>
        <time>2020-09-01T14:07:41Z</time>
      </trkpt>
      <trkpt lat="47.96224" lon="0.37354">
        <ele>130</ele>
        <time>2020-09-01T14:07:50Z</time>
      </trkpt>
      <trkpt lat="47.96226" lon="0.37339">
        <ele>131</ele>
        <time>2020-09-01T14:08:00Z</time>
      </trkpt>
      <trkpt lat="47.96228" lon="0.37326">
        <ele>131</ele>
        <time>2020-09-01T14:08:07Z</time>
      </trkpt>
      <trkpt lat="47.96232" lon="0.37313">
        <ele>129</ele>
        <time>2020-09-01T14:08:13Z</time>
      </trkpt>
      <trkpt lat="47.96233" lon="0.37298">
        <ele>130</ele>
        <time>2020-09-01T14:08:21Z</time>
      </trkpt>
      <trkpt lat="47.96235" lon="0.37283">
        <ele>130</ele>
        <time>2020-09-01T14:08:30Z</time>
      </trkpt>
      <trkpt lat="47.96237" lon="0.3727">
        <ele>130</ele>
        <time>2020-09-01T14:08:38Z</time>
      </trkpt>
      <trkpt lat="47.96237" lon="0.37255">
        <ele>130</ele>
        <time>2020-09-01T14:08:46Z</time>
      </trkpt>
      <trkpt lat="47.96239" lon="0.37241">
        <ele>129</ele>
        <time>2020-09-01T14:08:54Z</time>
      </trkpt>
      <trkpt lat="47.9624" lon="0.37228">
        <ele>130</ele>
        <time>2020-09-01T14:09:02Z</time>
      </trkpt>
      <trkpt lat="47.96242" lon="0.37214">
        <ele>131</ele>
        <time>2020-09-01T14:09:09Z</time>
      </trkpt>
      <trkpt lat="47.96244" lon="0.37201">
        <ele>131</ele>
        <time>2020-09-01T14:09:17Z</time>
      </trkpt>
      <trkpt lat="47.96245" lon="0.37187">
        <ele>134</ele>
        <time>2020-09-01T14:09:24Z</time>
      </trkpt>
      <trkpt lat="47.96247" lon="0.37172">
        <ele>132</ele>
        <time>2020-09-01T14:09:32Z</time>
      </trkpt>
      <trkpt lat="47.96251" lon="0.3716">
        <ele>131</ele>
        <time>2020-09-01T14:09:40Z</time>
      </trkpt>
      <trkpt lat="47.96253" lon="0.37146">
        <ele>131</ele>
        <time>2020-09-01T14:09:49Z</time>
      </trkpt>
      <trkpt lat="47.96254" lon="0.37133">
        <ele>132</ele>
        <time>2020-09-01T14:09:57Z</time>
      </trkpt>
      <trkpt lat="47.96256" lon="0.37118">
        <ele>132</ele>
        <time>2020-09-01T14:10:04Z</time>
      </trkpt>
      <trkpt lat="47.96257" lon="0.37104">
        <ele>131</ele>
        <time>2020-09-01T14:10:12Z</time>
      </trkpt>
      <trkpt lat="47.96258" lon="0.37089">
        <ele>133</ele>
        <time>2020-09-01T14:10:21Z</time>
      </trkpt>
      <trkpt lat="47.96259" lon="0.37074">
        <ele>133</ele>
        <time>2020-09-01T14:10:29Z</time>
      </trkpt>
      <trkpt lat="47.96261" lon="0.37061">
        <ele>132</ele>
        <time>2020-09-01T14:10:37Z</time>
      </trkpt>
      <trkpt lat="47.96262" lon="0.37046">
        <ele>133</ele>
        <time>2020-09-01T14:10:46Z</time>
      </trkpt>
      <trkpt lat="47.96265" lon="0.37031">
        <ele>133</ele>
        <time>2020-09-01T14:10:53Z</time>
      </trkpt>
      <trkpt lat="47.96267" lon="0.37018">
        <ele>133</ele>
        <time>2020-09-01T14:11:00Z</time>
      </trkpt>
      <trkpt lat="47.9627" lon="0.37003">
        <ele>133</ele>
        <time>2020-09-01T14:11:08Z</time>
      </trkpt>
      <trkpt lat="47.96272" lon="0.36989">
        <ele>132</ele>
        <time>2020-09-01T14:11:16Z</time>
      </trkpt>
      <trkpt lat="47.96272" lon="0.36975">
        <ele>133</ele>
        <time>2020-09-01T14:11:23Z</time>
      </trkpt>
      <trkpt lat="47.96273" lon="0.36961">
        <ele>132</ele>
        <time>2020-09-01T14:11:31Z</time>
      </trkpt>
      <trkpt lat="47.96273" lon="0.36947">
        <ele>132</ele>
        <time>2020-09-01T14:11:38Z</time>
      </trkpt>
      <trkpt lat="47.96275" lon="0.36933">
        <ele>135</ele>
        <time>2020-09-01T14:11:47Z</time>
      </trkpt>
      <trkpt lat="47.96279" lon="0.36919">
        <ele>134</ele>
        <time>2020-09-01T14:11:55Z</time>
      </trkpt>
      <trkpt lat="47.96282" lon="0.36905">
        <ele>134</ele>
        <time>2020-09-01T14:12:03Z</time>
      </trkpt>
      <trkpt lat="47.96283" lon="0.36891">
        <ele>131</ele>
        <time>2020-09-01T14:12:12Z</time>
      </trkpt>
      <trkpt lat="47.96285" lon="0.36877">
        <ele>131</ele>
        <time>2020-09-01T14:12:19Z</time>
      </trkpt>
      <trkpt lat="47.96288" lon="0.36864">
        <ele>132</ele>
        <time>2020-09-01T14:12:27Z</time>
      </trkpt>
      <trkpt lat="47.96291" lon="0.3685">
        <ele>132</ele>
        <time>2020-09-01T14:12:35Z</time>
      </trkpt>
      <trkpt lat="47.96292" lon="0.36837">
        <ele>131</ele>
        <time>2020-09-01T14:12:42Z</time>
      </trkpt>
      <trkpt lat="47.96294" lon="0.36822">
        <ele>132</ele>
        <time>2020-09-01T14:12:52Z</time>
      </trkpt>
      <trkpt lat="47.96293" lon="0.36808">
        <ele>133</ele>
        <time>2020-09-01T14:12:59Z</time>
      </trkpt>
      <trkpt lat="47.96294" lon="0.36793">
        <ele>134</ele>
        <time>2020-09-01T14:13:08Z</time>
      </trkpt>
      <trkpt lat="47.96297" lon="0.36778">
        <ele>134</ele>
        <time>2020-09-01T14:13:16Z</time>
      </trkpt>
      <trkpt lat="47.96299" lon="0.36764">
        <ele>135</ele>
        <time>2020-09-01T14:13:25Z</time>
      </trkpt>
      <trkpt lat="47.96301" lon="0.36751">
        <ele>134</ele>
        <time>2020-09-01T14:13:34Z</time>
      </trkpt>
      <trkpt lat="47.96303" lon="0.36738">
        <ele>137</ele>
        <time>2020-09-01T14:13:42Z</time>
      </trkpt>
      <trkpt lat="47.96306" lon="0.36725">
        <ele>138</ele>
        <time>2020-09-01T14:13:50Z</time>
      </trkpt>
      <trkpt lat="47.96309" lon="0.36711">
        <ele>138</ele>
        <time>2020-09-01T14:13:58Z</time>
      </trkpt>
      <trkpt lat="47.96311" lon="0.36696">
        <ele>138</ele>
        <time>2020-09-01T14:14:06Z</time>
      </trkpt>
      <trkpt lat="47.96313" lon="0.36682">
        <ele>137</ele>
        <time>2020-09-01T14:14:13Z</time>
      </trkpt>
      <trkpt lat="47.96312" lon="0.36668">
        <ele>134</ele>
        <time>2020-09-01T14:14:22Z</time>
      </trkpt>
      <trkpt lat="47.96314" lon="0.36653">
        <ele>135</ele>
        <time>2020-09-01T14:14:30Z</time>
      </trkpt>
      <trkpt lat="47.96315" lon="0.3664">
        <ele>135</ele>
        <time>2020-09-01T14:14:40Z</time>
      </trkpt>
      <trkpt lat="47.96316" lon="0.36625">
        <ele>134</ele>
        <time>2020-09-01T14:14:48Z</time>
      </trkpt>
      <trkpt lat="47.96318" lon="0.36611">
        <ele>134</ele>
        <time>2020-09-01T14:14:55Z</time>
      </trkpt>
      <trkpt lat="47.9632" lon="0.36598">
        <ele>135</ele>
        <time>2020-09-01T14:15:02Z</time>
      </trkpt>
      <trkpt lat="47.96322" lon="0.36583">
        <ele>137</ele>
        <time>2020-09-01T14:15:10Z</time>
      </trkpt>
      <trkpt lat="47.96322" lon="0.36569">
        <ele>134</ele>
        <time>2020-09-01T14:15:17Z</time>
      </trkpt>
      <trkpt lat="47.96322" lon="0.36554">
        <ele>135</ele>
        <time>2020-09-01T14:15:27Z</time>
      </trkpt>
      <trkpt lat="47.96327" lon="0.36541">
        <ele>134</ele>
        <time>2020-09-01T14:15:36Z</time>
      </trkpt>
      <trkpt lat="47.96331" lon="0.36528">
        <ele>133</ele>
        <time>2020-09-01T14:15:44Z</time>
      </trkpt>
      <trkpt lat="47.96332" lon="0.36514">
        <ele>133</ele>
        <time>2020-09-01T14:15:52Z</time>
      </trkpt>
      <trkpt lat="47.96334" lon="0.365">
        <ele>132</ele>
        <time>2020-09-01T14:16:00Z</time>
      </trkpt>
      <trkpt lat="47.96336" lon="0.36486">
        <ele>134</ele>
        <time>2020-09-01T14:16:06Z</time>
      </trkpt>
      <trkpt lat="47.96336" lon="0.36472">
        <ele>134</ele>
        <time>2020-09-01T14:16:14Z</time>
      </trkpt>
      <trkpt lat="47.96337" lon="0.36458">
        <ele>133</ele>
        <time>2020-09-01T14:16:22Z</time>
      </trkpt>
      <trkpt lat="47.96341" lon="0.36445">
        <ele>134</ele>
        <time>2020-09-01T14:16:31Z</time>
      </trkpt>
      <trkpt lat="47.96343" lon="0.36432">
        <ele>134</ele>
        <time>2020-09-01T14:16:38Z</time>
      </trkpt>
      <trkpt lat="47.96343" lon="0.36417">
        <ele>134</ele>
        <time>2020-09-01T14:16:46Z</time>
      </trkpt>
      <trkpt lat="47.96345" lon="0.36403">
        <ele>133</ele>
        <time>2020-09-01T14:16:54Z</time>
      </trkpt>
      <trkpt lat="47.96347" lon="0.36389">
        <ele>133</ele>
        <time>2020-09-01T14:17:02Z</time>
      </trkpt>
      <trkpt lat="47.96349" lon="0.36376">
        <ele>133</ele>
        <time>2020-09-01T14:17:10Z</time>
      </trkpt>
      <trkpt lat="47.96349" lon="0.36362">
        <ele>133</ele>
        <time>2020-09-01T14:17:17Z</time>
      </trkpt>
      <trkpt lat="47.96351" lon="0.36349">
        <ele>134</ele>
        <time>2020-09-01T14:17:26Z</time>
      </trkpt>
      <trkpt lat="47.96355" lon="0.36335">
        <ele>133</ele>
        <time>2020-09-01T14:17:35Z</time>
      </trkpt>
      <trkpt lat="47.96354" lon="0.3632">
        <ele>132</ele>
        <time>2020-09-01T14:17:42Z</time>
      </trkpt>
      <trkpt lat="47.96356" lon="0.36307">
        <ele>136</ele>
        <time>2020-09-01T14:17:49Z</time>
      </trkpt>
      <trkpt lat="47.96355" lon="0.36293">
        <ele>135</ele>
        <time>2020-09-01T14:17:56Z</time>
      </trkpt>
      <trkpt lat="47.96359" lon="0.3628">
        <ele>133</ele>
        <time>2020-09-01T14:18:04Z</time>
      </trkpt>
      <trkpt lat="47.96364" lon="0.36267">
        <ele>133</ele>
        <time>2020-09-01T14:18:13Z</time>
      </trkpt>
      <trkpt lat="47.96363" lon="0.36253">
        <ele>131</ele>
        <time>2020-09-01T14:18:20Z</time>
      </trkpt>
      <trkpt lat="47.96366" lon="0.3624">
        <ele>131</ele>
        <time>2020-09-01T14:18:27Z</time>
      </trkpt>
      <trkpt lat="47.96369" lon="0.36226">
        <ele>133</ele>
        <time>2020-09-01T14:18:36Z</time>
      </trkpt>
      <trkpt lat="47.96372" lon="0.36212">
        <ele>131</ele>
        <time>2020-09-01T14:18:43Z</time>
      </trkpt>
      <trkpt lat="47.96373" lon="0.36199">
        <ele>130</ele>
        <time>2020-09-01T14:18:49Z</time>
      </trkpt>
      <trkpt lat="47.96374" lon="0.36184">
        <ele>130</ele>
        <time>2020-09-01T14:18:57Z</time>
      </trkpt>
      <trkpt lat="47.96376" lon="0.3617">
        <ele>129</ele>
        <time>2020-09-01T14:19:05Z</time>
      </trkpt>
      <trkpt lat="47.96377" lon="0.36155">
        <ele>130</ele>
        <time>2020-09-01T14:19:13Z</time>
      </trkpt>
      <trkpt lat="47.96378" lon="0.36141">
        <ele>130</ele>
        <time>2020-09-01T14:19:20Z</time>
      </trkpt>
      <trkpt lat="47.96379" lon="0.36127">
        <ele>131</ele>
        <time>2020-09-01T14:19:27Z</time>
      </trkpt>
      <trkpt lat="47.9638" lon="0.36112">
        <ele>131</ele>
        <time>2020-09-01T14:19:36Z</time>
      </trkpt>
      <trkpt lat="47.96381" lon="0.36097">
        <ele>131</ele>
        <time>2020-09-01T14:19:44Z</time>
      </trkpt>
      <trkpt lat="47.96382" lon="0.36083">
        <ele>131</ele>
        <time>2020-09-01T14:19:53Z</time>
      </trkpt>
      <trkpt lat="47.96383" lon="0.36068">
        <ele>131</ele>
        <time>2020-09-01T14:20:01Z</time>
      </trkpt>
      <trkpt lat="47.96383" lon="0.36052">
        <ele>131</ele>
        <time>2020-09-01T14:20:10Z</time>
      </trkpt>
      <trkpt lat="47.96386" lon="0.36038">
        <ele>132</ele>
        <time>2020-09-01T14:20:17Z</time>
      </trkpt>
      <trkpt lat="47.96387" lon="0.36023">
        <ele>130</ele>
        <time>2020-09-01T14:20:25Z</time>
      </trkpt>
      <trkpt lat="47.96388" lon="0.3601">
        <ele>130</ele>
        <time>2020-09-01T14:20:33Z</time>
      </trkpt>
      <trkpt lat="47.96389" lon="0.35995">
        <ele>129</ele>
        <time>2020-09-01T14:20:42Z</time>
      </trkpt>
      <trkpt lat="47.96391" lon="0.35981">
        <ele>128</ele>
        <time>2020-09-01T14:20:50Z</time>
      </trkpt>
      <trkpt lat="47.96392" lon="0.35967">
        <ele>127</ele>
        <time>2020-09-01T14:20:58Z</time>
      </trkpt>
      <trkpt lat="47.96392" lon="0.35951">
        <ele>128</ele>
        <time>2020-09-01T14:21:06Z</time>
      </trkpt>
      <trkpt lat="47.96392" lon="0.35938">
        <ele>129</ele>
        <time>2020-09-01T14:21:14Z</time>
      </trkpt>
      <trkpt lat="47.96392" lon="0.35922">
        <ele>129</ele>
        <time>2020-09-01T14:21:23Z</time>
      </trkpt>
      <trkpt lat="47.96393" lon="0.35909">
        <ele>131</ele>
        <time>2020-09-01T14:21:31Z</time>
      </trkpt>
      <trkpt lat="47.96392" lon="0.35895">
        <ele>129</ele>
        <time>2020-09-01T14:21:41Z</time>
      </trkpt>
      <trkpt lat="47.96394" lon="0.35882">
        <ele>128</ele>
        <time>2020-09-01T14:21:49Z</time>
      </trkpt>
      <trkpt lat="47.96395" lon="0.35868">
        <ele>128</ele>
        <time>2020-09-01T14:21:56Z</time>
      </trkpt>
      <trkpt lat="47.96397" lon="0.35855">
        <ele>126</ele>
        <time>2020-09-01T14:22:03Z</time>
      </trkpt>
      <trkpt lat="47.96401" lon="0.35841">
        <ele>126</ele>
        <time>2020-09-01T14:22:11Z</time>
      </trkpt>
      <trkpt lat="47.96402" lon="0.35827">
        <ele>126</ele>
        <time>2020-09-01T14:22:18Z</time>
      </trkpt>
      <trkpt lat="47.96404" lon="0.35811">
        <ele>125</ele>
        <time>2020-09-01T14:22:26Z</time>
      </trkpt>
      <trkpt lat="47.96405" lon="0.35797">
        <ele>125</ele>
        <time>2020-09-01T14:22:33Z</time>
      </trkpt>
      <trkpt lat="47.96406" lon="0.35782">
        <ele>126</ele>
        <time>2020-09-01T14:22:41Z</time>
      </trkpt>
      <trkpt lat="47.9641" lon="0.3577">
        <ele>126</ele>
        <time>2020-09-01T14:22:47Z</time>
      </trkpt>
      <trkpt lat="47.96413" lon="0.35752">
        <ele>129</ele>
        <time>2020-09-01T14:22:56Z</time>
      </trkpt>
      <trkpt lat="47.96416" lon="0.35739">
        <ele>129</ele>
        <time>2020-09-01T14:23:04Z</time>
      </trkpt>
      <trkpt lat="47.96419" lon="0.35726">
        <ele>129</ele>
        <time>2020-09-01T14:23:11Z</time>
      </trkpt>
      <trkpt lat="47.96423" lon="0.35715">
        <ele>130</ele>
        <time>2020-09-01T14:23:18Z</time>
      </trkpt>
      <trkpt lat="47.96428" lon="0.35703">
        <ele>130</ele>
        <time>2020-09-01T14:23:25Z</time>
      </trkpt>
      <trkpt lat="47.96431" lon="0.3569">
        <ele>130</ele>
        <time>2020-09-01T14:23:33Z</time>
      </trkpt>
      <trkpt lat="47.96433" lon="0.35677">
        <ele>130</ele>
        <time>2020-09-01T14:23:41Z</time>
      </trkpt>
      <trkpt lat="47.96435" lon="0.35663">
        <ele>132</ele>
        <time>2020-09-01T14:23:49Z</time>
      </trkpt>
      <trkpt lat="47.96437" lon="0.35649">
        <ele>132</ele>
        <time>2020-09-01T14:23:57Z</time>
      </trkpt>
      <trkpt lat="47.96439" lon="0.35635">
        <ele>132</ele>
        <time>2020-09-01T14:24:05Z</time>
      </trkpt>
      <trkpt lat="47.96442" lon="0.35622">
        <ele>132</ele>
        <time>2020-09-01T14:24:12Z</time>
      </trkpt>
      <trkpt lat="47.96443" lon="0.35607">
        <ele>132</ele>
        <time>2020-09-01T14:24:19Z</time>
      </trkpt>
      <trkpt lat="47.96446" lon="0.35594">
        <ele>132</ele>
        <time>2020-09-01T14:24:26Z</time>
      </trkpt>
      <trkpt lat="47.96448" lon="0.3558">
        <ele>131</ele>
        <time>2020-09-01T14:24:36Z</time>
      </trkpt>
      <trkpt lat="47.9645" lon="0.35564">
        <ele>130</ele>
        <time>2020-09-01T14:24:46Z</time>
      </trkpt>
      <trkpt lat="47.96453" lon="0.35551">
        <ele>131</ele>
        <time>2020-09-01T14:24:53Z</time>
      </trkpt>
      <trkpt lat="47.96454" lon="0.35537">
        <ele>129</ele>
        <time>2020-09-01T14:25:00Z</time>
      </trkpt>
      <trkpt lat="47.96454" lon="0.35522">
        <ele>129</ele>
        <time>2020-09-01T14:25:09Z</time>
      </trkpt>
      <trkpt lat="47.96454" lon="0.35507">
        <ele>131</ele>
        <time>2020-09-01T14:25:16Z</time>
      </trkpt>
      <trkpt lat="47.96454" lon="0.35493">
        <ele>131</ele>
        <time>2020-09-01T14:25:23Z</time>
      </trkpt>
      <trkpt lat="47.96457" lon="0.35478">
        <ele>131</ele>
        <time>2020-09-01T14:25:31Z</time>
      </trkpt>
      <trkpt lat="47.96458" lon="0.35465">
        <ele>130</ele>
        <time>2020-09-01T14:25:39Z</time>
      </trkpt>
      <trkpt lat="47.96461" lon="0.35451">
        <ele>128</ele>
        <time>2020-09-01T14:25:47Z</time>
      </trkpt>
      <trkpt lat="47.96463" lon="0.35437">
        <ele>128</ele>
        <time>2020-09-01T14:25:55Z</time>
      </trkpt>
      <trkpt lat="47.96463" lon="0.35423">
        <ele>127</ele>
        <time>2020-09-01T14:26:02Z</time>
      </trkpt>
      <trkpt lat="47.96464" lon="0.35409">
        <ele>126</ele>
        <time>2020-09-01T14:26:09Z</time>
      </trkpt>
      <trkpt lat="47.96465" lon="0.35395">
        <ele>128</ele>
        <time>2020-09-01T14:26:16Z</time>
      </trkpt>
      <trkpt lat="47.96466" lon="0.35381">
        <ele>127</ele>
        <time>2020-09-01T14:26:24Z</time>
      </trkpt>
      <trkpt lat="47.96465" lon="0.35366">
        <ele>129</ele>
        <time>2020-09-01T14:26:31Z</time>
      </trkpt>
      <trkpt lat="47.96467" lon="0.35351">
        <ele>129</ele>
        <time>2020-09-01T14:26:40Z</time>
      </trkpt>
      <trkpt lat="47.96469" lon="0.35337">
        <ele>128</ele>
        <time>2020-09-01T14:26:48Z</time>
      </trkpt>
      <trkpt lat="47.96471" lon="0.35322">
        <ele>127</ele>
        <time>2020-09-01T14:26:57Z</time>
      </trkpt>
      <trkpt lat="47.96473" lon="0.35308">
        <ele>126</ele>
        <time>2020-09-01T14:27:05Z</time>
      </trkpt>
      <trkpt lat="47.96477" lon="0.35296">
        <ele>124</ele>
        <time>2020-09-01T14:27:13Z</time>
      </trkpt>
      <trkpt lat="47.96479" lon="0.35282">
        <ele>121</ele>
        <time>2020-09-01T14:27:21Z</time>
      </trkpt>
      <trkpt lat="47.96481" lon="0.35267">
        <ele>121</ele>
        <time>2020-09-01T14:27:27Z</time>
      </trkpt>
      <trkpt lat="47.96482" lon="0.35252">
        <ele>120</ele>
        <time>2020-09-01T14:27:35Z</time>
      </trkpt>
      <trkpt lat="47.96483" lon="0.35238">
        <ele>121</ele>
        <time>2020-09-01T14:27:42Z</time>
      </trkpt>
      <trkpt lat="47.96485" lon="0.35224">
        <ele>121</ele>
        <time>2020-09-01T14:27:49Z</time>
      </trkpt>
      <trkpt lat="47.96487" lon="0.35211">
        <ele>121</ele>
        <time>2020-09-01T14:27:57Z</time>
      </trkpt>
      <trkpt lat="47.96487" lon="0.35196">
        <ele>122</ele>
        <time>2020-09-01T14:28:07Z</time>
      </trkpt>
      <trkpt lat="47.9649" lon="0.35182">
        <ele>121</ele>
        <time>2020-09-01T14:28:15Z</time>
      </trkpt>
      <trkpt lat="47.96491" lon="0.35167">
        <ele>119</ele>
        <time>2020-09-01T14:28:23Z</time>
      </trkpt>
      <trkpt lat="47.96491" lon="0.35153">
        <ele>118</ele>
        <time>2020-09-01T14:28:30Z</time>
      </trkpt>
      <trkpt lat="47.96494" lon="0.3514">
        <ele>117</ele>
        <time>2020-09-01T14:28:38Z</time>
      </trkpt>
      <trkpt lat="47.96497" lon="0.35127">
        <ele>115</ele>
        <time>2020-09-01T14:28:45Z</time>
      </trkpt>
      <trkpt lat="47.96497" lon="0.35113">
        <ele>116</ele>
        <time>2020-09-01T14:28:52Z</time>
      </trkpt>
      <trkpt lat="47.96497" lon="0.35099">
        <ele>115</ele>
        <time>2020-09-01T14:29:00Z</time>
      </trkpt>
      <trkpt lat="47.96499" lon="0.35085">
        <ele>115</ele>
        <time>2020-09-01T14:29:08Z</time>
      </trkpt>
      <trkpt lat="47.965" lon="0.35071">
        <ele>115</ele>
        <time>2020-09-01T14:29:15Z</time>
      </trkpt>
      <trkpt lat="47.96501" lon="0.35057">
        <ele>115</ele>
        <time>2020-09-01T14:29:23Z</time>
      </trkpt>
      <trkpt lat="47.96503" lon="0.35042">
        <ele>115</ele>
        <time>2020-09-01T14:29:31Z</time>
      </trkpt>
      <trkpt lat="47.96504" lon="0.35028">
        <ele>115</ele>
        <time>2020-09-01T14:29:39Z</time>
      </trkpt>
      <trkpt lat="47.96505" lon="0.35013">
        <ele>118</ele>
        <time>2020-09-01T14:29:47Z</time>
      </trkpt>
      <trkpt lat="47.96506" lon="0.34998">
        <ele>118</ele>
        <time>2020-09-01T14:29:54Z</time>
      </trkpt>
      <trkpt lat="47.96509" lon="0.34983">
        <ele>121</ele>
        <time>2020-09-01T14:30:02Z</time>
      </trkpt>
      <trkpt lat="47.96512" lon="0.3497">
        <ele>121</ele>
        <time>2020-09-01T14:30:10Z</time>
      </trkpt>
      <trkpt lat="47.96512" lon="0.34955">
        <ele>121</ele>
        <time>2020-09-01T14:30:18Z</time>
      </trkpt>
      <trkpt lat="47.96513" lon="0.34941">
        <ele>119</ele>
        <time>2020-09-01T14:30:26Z</time>
      </trkpt>
      <trkpt lat="47.96515" lon="0.34926">
        <ele>118</ele>
        <time>2020-09-01T14:30:35Z</time>
      </trkpt>
      <trkpt lat="47.96515" lon="0.34913">
        <ele>118</ele>
        <time>2020-09-01T14:30:41Z</time>
      </trkpt>
      <trkpt lat="47.96517" lon="0.34898">
        <ele>118</ele>
        <time>2020-09-01T14:30:48Z</time>
      </trkpt>
      <trkpt lat="47.96524" lon="0.34889">
        <ele>119</ele>
        <time>2020-09-01T14:30:56Z</time>
      </trkpt>
      <trkpt lat="47.96528" lon="0.34902">
        <ele>124</ele>
        <time>2020-09-01T14:31:07Z</time>
      </trkpt>
      <trkpt lat="47.96533" lon="0.34914">
        <ele>126</ele>
        <time>2020-09-01T14:31:15Z</time>
      </trkpt>
      <trkpt lat="47.96536" lon="0.34929">
        <ele>128</ele>
        <time>2020-09-01T14:31:24Z</time>
      </trkpt>
      <trkpt lat="47.96539" lon="0.34943">
        <ele>128</ele>
        <time>2020-09-01T14:31:32Z</time>
      </trkpt>
      <trkpt lat="47.96544" lon="0.34954">
        <ele>129</ele>
        <time>2020-09-01T14:31:39Z</time>
      </trkpt>
      <trkpt lat="47.96548" lon="0.34967">
        <ele>129</ele>
        <time>2020-09-01T14:31:46Z</time>
      </trkpt>
      <trkpt lat="47.96551" lon="0.34981">
        <ele>129</ele>
        <time>2020-09-01T14:31:55Z</time>
      </trkpt>
      <trkpt lat="47.96556" lon="0.34995">
        <ele>128</ele>
        <time>2020-09-01T14:32:03Z</time>
      </trkpt>
      <trkpt lat="47.96561" lon="0.35007">
        <ele>129</ele>
        <time>2020-09-01T14:32:10Z</time>
      </trkpt>
      <trkpt lat="47.96566" lon="0.35021">
        <ele>128</ele>
        <time>2020-09-01T14:32:18Z</time>
      </trkpt>
      <trkpt lat="47.9657" lon="0.35033">
        <ele>127</ele>
        <time>2020-09-01T14:32:26Z</time>
      </trkpt>
      <trkpt lat="47.96574" lon="0.35046">
        <ele>127</ele>
        <time>2020-09-01T14:32:34Z</time>
      </trkpt>
      <trkpt lat="47.96579" lon="0.35058">
        <ele>128</ele>
        <time>2020-09-01T14:32:41Z</time>
      </trkpt>
      <trkpt lat="47.96583" lon="0.35071">
        <ele>129</ele>
        <time>2020-09-01T14:32:49Z</time>
      </trkpt>
      <trkpt lat="47.96587" lon="0.35083">
        <ele>129</ele>
        <time>2020-09-01T14:32:56Z</time>
      </trkpt>
      <trkpt lat="47.9659" lon="0.35097">
        <ele>129</ele>
        <time>2020-09-01T14:33:04Z</time>
      </trkpt>
      <trkpt lat="47.96594" lon="0.3511">
        <ele>129</ele>
        <time>2020-09-01T14:33:11Z</time>
      </trkpt>
      <trkpt lat="47.96598" lon="0.35123">
        <ele>130</ele>
        <time>2020-09-01T14:33:20Z</time>
      </trkpt>
      <trkpt lat="47.96603" lon="0.35137">
        <ele>130</ele>
        <time>2020-09-01T14:33:28Z</time>
      </trkpt>
      <trkpt lat="47.96606" lon="0.35149">
        <ele>130</ele>
        <time>2020-09-01T14:33:35Z</time>
      </trkpt>
      <trkpt lat="47.9661" lon="0.35162">
        <ele>130</ele>
        <time>2020-09-01T14:33:42Z</time>
      </trkpt>
      <trkpt lat="47.96615" lon="0.35176">
        <ele>131</ele>
        <time>2020-09-01T14:33:50Z</time>
      </trkpt>
      <trkpt lat="47.96619" lon="0.35188">
        <ele>131</ele>
        <time>2020-09-01T14:33:57Z</time>
      </trkpt>
      <trkpt lat="47.96624" lon="0.352">
        <ele>131</ele>
        <time>2020-09-01T14:34:04Z</time>
      </trkpt>
      <trkpt lat="47.96628" lon="0.35212">
        <ele>131</ele>
        <time>2020-09-01T14:34:11Z</time>
      </trkpt>
      <trkpt lat="47.96632" lon="0.35224">
        <ele>131</ele>
        <time>2020-09-01T14:34:19Z</time>
      </trkpt>
      <trkpt lat="47.96636" lon="0.35237">
        <ele>132</ele>
        <time>2020-09-01T14:34:27Z</time>
      </trkpt>
      <trkpt lat="47.96641" lon="0.35251">
        <ele>133</ele>
        <time>2020-09-01T14:34:35Z</time>
      </trkpt>
      <trkpt lat="47.96644" lon="0.35263">
        <ele>134</ele>
        <time>2020-09-01T14:34:43Z</time>
      </trkpt>
      <trkpt lat="47.96649" lon="0.35276">
        <ele>133</ele>
        <time>2020-09-01T14:34:51Z</time>
      </trkpt>
      <trkpt lat="47.96653" lon="0.35289">
        <ele>133</ele>
        <time>2020-09-01T14:34:58Z</time>
      </trkpt>
      <trkpt lat="47.96658" lon="0.35301">
        <ele>133</ele>
        <time>2020-09-01T14:35:06Z</time>
      </trkpt>
      <trkpt lat="47.96662" lon="0.35313">
        <ele>134</ele>
        <time>2020-09-01T14:35:13Z</time>
      </trkpt>
      <trkpt lat="47.96668" lon="0.35324">
        <ele>133</ele>
        <time>2020-09-01T14:35:20Z</time>
      </trkpt>
      <trkpt lat="47.96673" lon="0.35335">
        <ele>133</ele>
        <time>2020-09-01T14:35:27Z</time>
      </trkpt>
      <trkpt lat="47.96676" lon="0.35348">
        <ele>134</ele>
        <time>2020-09-01T14:35:34Z</time>
      </trkpt>
      <trkpt lat="47.96679" lon="0.35361">
        <ele>134</ele>
        <time>2020-09-01T14:35:42Z</time>
      </trkpt>
      <trkpt lat="47.96684" lon="0.35374">
        <ele>134</ele>
        <time>2020-09-01T14:35:49Z</time>
      </trkpt>
      <trkpt lat="47.96687" lon="0.35387">
        <ele>132</ele>
        <time>2020-09-01T14:35:56Z</time>
      </trkpt>
      <trkpt lat="47.9669" lon="0.35401">
        <ele>132</ele>
        <time>2020-09-01T14:36:05Z</time>
      </trkpt>
      <trkpt lat="47.96695" lon="0.35414">
        <ele>134</ele>
        <time>2020-09-01T14:36:13Z</time>
      </trkpt>
      <trkpt lat="47.96701" lon="0.35428">
        <ele>134</ele>
        <time>2020-09-01T14:36:21Z</time>
      </trkpt>
      <trkpt lat="47.96705" lon="0.35441">
        <ele>135</ele>
        <time>2020-09-01T14:36:29Z</time>
      </trkpt>
      <trkpt lat="47.96709" lon="0.35453">
        <ele>135</ele>
        <time>2020-09-01T14:36:36Z</time>
      </trkpt>
      <trkpt lat="47.96713" lon="0.35467">
        <ele>136</ele>
        <time>2020-09-01T14:36:43Z</time>
      </trkpt>
      <trkpt lat="47.96718" lon="0.3548">
        <ele>135</ele>
        <time>2020-09-01T14:36:51Z</time>
      </trkpt>
      <trkpt lat="47.96724" lon="0.35492">
        <ele>135</ele>
        <time>2020-09-01T14:36:58Z</time>
      </trkpt>
      <trkpt lat="47.96728" lon="0.35505">
        <ele>135</ele>
        <time>2020-09-01T14:37:07Z</time>
      </trkpt>
      <trkpt lat="47.9673" lon="0.3552">
        <ele>135</ele>
        <time>2020-09-01T14:37:15Z</time>
      </trkpt>
      <trkpt lat="47.96734" lon="0.35533">
        <ele>136</ele>
        <time>2020-09-01T14:37:23Z</time>
      </trkpt>
      <trkpt lat="47.96735" lon="0.35547">
        <ele>135</ele>
        <time>2020-09-01T14:37:31Z</time>
      </trkpt>
      <trkpt lat="47.96742" lon="0.35559">
        <ele>133</ele>
        <time>2020-09-01T14:37:38Z</time>
      </trkpt>
      <trkpt lat="47.96745" lon="0.35572">
        <ele>132</ele>
        <time>2020-09-01T14:37:45Z</time>
      </trkpt>
      <trkpt lat="47.96749" lon="0.35585">
        <ele>132</ele>
        <time>2020-09-01T14:37:52Z</time>
      </trkpt>
      <trkpt lat="47.96753" lon="0.35598">
        <ele>133</ele>
        <time>2020-09-01T14:37:59Z</time>
      </trkpt>
      <trkpt lat="47.96758" lon="0.3561">
        <ele>135</ele>
        <time>2020-09-01T14:38:08Z</time>
      </trkpt>
      <trkpt lat="47.96763" lon="0.35623">
        <ele>134</ele>
        <time>2020-09-01T14:38:15Z</time>
      </trkpt>
      <trkpt lat="47.96767" lon="0.35635">
        <ele>134</ele>
        <time>2020-09-01T14:38:22Z</time>
      </trkpt>
      <trkpt lat="47.96772" lon="0.35648">
        <ele>134</ele>
        <time>2020-09-01T14:38:29Z</time>
      </trkpt>
      <trkpt lat="47.96777" lon="0.35659">
        <ele>134</ele>
        <time>2020-09-01T14:38:36Z</time>
      </trkpt>
      <trkpt lat="47.96782" lon="0.35672">
        <ele>135</ele>
        <time>2020-09-01T14:38:44Z</time>
      </trkpt>
      <trkpt lat="47.96787" lon="0.35684">
        <ele>134</ele>
        <time>2020-09-01T14:38:52Z</time>
      </trkpt>
      <trkpt lat="47.96792" lon="0.35696">
        <ele>135</ele>
        <time>2020-09-01T14:38:59Z</time>
      </trkpt>
      <trkpt lat="47.96798" lon="0.35708">
        <ele>133</ele>
        <time>2020-09-01T14:39:06Z</time>
      </trkpt>
      <trkpt lat="47.96804" lon="0.35719">
        <ele>134</ele>
        <time>2020-09-01T14:39:14Z</time>
      </trkpt>
      <trkpt lat="47.9681" lon="0.35731">
        <ele>136</ele>
        <time>2020-09-01T14:39:22Z</time>
      </trkpt>
      <trkpt lat="47.96815" lon="0.35743">
        <ele>136</ele>
        <time>2020-09-01T14:39:30Z</time>
      </trkpt>
      <trkpt lat="47.96822" lon="0.35753">
        <ele>135</ele>
        <time>2020-09-01T14:39:38Z</time>
      </trkpt>
      <trkpt lat="47.96829" lon="0.35763">
        <ele>134</ele>
        <time>2020-09-01T14:39:46Z</time>
      </trkpt>
      <trkpt lat="47.96836" lon="0.35771">
        <ele>134</ele>
        <time>2020-09-01T14:39:53Z</time>
      </trkpt>
      <trkpt lat="47.96843" lon="0.35781">
        <ele>135</ele>
        <time>2020-09-01T14:40:01Z</time>
      </trkpt>
      <trkpt lat="47.9685" lon="0.35791">
        <ele>135</ele>
        <time>2020-09-01T14:40:08Z</time>
      </trkpt>
      <trkpt lat="47.96857" lon="0.358">
        <ele>137</ele>
        <time>2020-09-01T14:40:16Z</time>
      </trkpt>
      <trkpt lat="47.96864" lon="0.3581">
        <ele>137</ele>
        <time>2020-09-01T14:40:24Z</time>
      </trkpt>
      <trkpt lat="47.96871" lon="0.35821">
        <ele>138</ele>
        <time>2020-09-01T14:40:32Z</time>
      </trkpt>
      <trkpt lat="47.96878" lon="0.3583">
        <ele>138</ele>
        <time>2020-09-01T14:40:40Z</time>
      </trkpt>
      <trkpt lat="47.96885" lon="0.35839">
        <ele>138</ele>
        <time>2020-09-01T14:40:47Z</time>
      </trkpt>
      <trkpt lat="47.96892" lon="0.35849">
        <ele>138</ele>
        <time>2020-09-01T14:40:54Z</time>
      </trkpt>
      <trkpt lat="47.96899" lon="0.35858">
        <ele>138</ele>
        <time>2020-09-01T14:41:00Z</time>
      </trkpt>
      <trkpt lat="47.96904" lon="0.35868">
        <ele>137</ele>
        <time>2020-09-01T14:41:07Z</time>
      </trkpt>
      <trkpt lat="47.9691" lon="0.35879">
        <ele>138</ele>
        <time>2020-09-01T14:41:15Z</time>
      </trkpt>
      <trkpt lat="47.96916" lon="0.3589">
        <ele>138</ele>
        <time>2020-09-01T14:41:23Z</time>
      </trkpt>
      <trkpt lat="47.96921" lon="0.35901">
        <ele>138</ele>
        <time>2020-09-01T14:41:31Z</time>
      </trkpt>
      <trkpt lat="47.96928" lon="0.3591">
        <ele>136</ele>
        <time>2020-09-01T14:41:38Z</time>
      </trkpt>
      <trkpt lat="47.96933" lon="0.35922">
        <ele>136</ele>
        <time>2020-09-01T14:41:45Z</time>
      </trkpt>
      <trkpt lat="47.9694" lon="0.35933">
        <ele>137</ele>
        <time>2020-09-01T14:41:53Z</time>
      </trkpt>
      <trkpt lat="47.96947" lon="0.35941">
        <ele>136</ele>
        <time>2020-09-01T14:42:00Z</time>
      </trkpt>
      <trkpt lat="47.96955" lon="0.35951">
        <ele>133</ele>
        <time>2020-09-01T14:42:08Z</time>
      </trkpt>
      <trkpt lat="47.96962" lon="0.35962">
        <ele>133</ele>
        <time>2020-09-01T14:42:15Z</time>
      </trkpt>
      <trkpt lat="47.96969" lon="0.35972">
        <ele>131</ele>
        <time>2020-09-01T14:42:23Z</time>
      </trkpt>
      <trkpt lat="47.96975" lon="0.35981">
        <ele>131</ele>
        <time>2020-09-01T14:42:30Z</time>
      </trkpt>
      <trkpt lat="47.96981" lon="0.35993">
        <ele>132</ele>
        <time>2020-09-01T14:42:37Z</time>
      </trkpt>
      <trkpt lat="47.96986" lon="0.36005">
        <ele>133</ele>
        <time>2020-09-01T14:42:46Z</time>
      </trkpt>
      <trkpt lat="47.96992" lon="0.36016">
        <ele>132</ele>
        <time>2020-09-01T14:42:54Z</time>
      </trkpt>
      <trkpt lat="47.97" lon="0.36025">
        <ele>131</ele>
        <time>2020-09-01T14:43:02Z</time>
      </trkpt>
      <trkpt lat="47.97008" lon="0.36034">
        <ele>133</ele>
        <time>2020-09-01T14:43:09Z</time>
      </trkpt>
      <trkpt lat="47.97016" lon="0.36043">
        <ele>132</ele>
        <time>2020-09-01T14:43:16Z</time>
      </trkpt>
      <trkpt lat="47.97022" lon="0.36053">
        <ele>132</ele>
        <time>2020-09-01T14:43:23Z</time>
      </trkpt>
      <trkpt lat="47.97028" lon="0.36064">
        <ele>133</ele>
        <time>2020-09-01T14:43:31Z</time>
      </trkpt>
      <trkpt lat="47.97035" lon="0.36074">
        <ele>133</ele>
        <time>2020-09-01T14:43:38Z</time>
      </trkpt>
      <trkpt lat="47.97041" lon="0.36084">
        <ele>133</ele>
        <time>2020-09-01T14:43:45Z</time>
      </trkpt>
      <trkpt lat="47.97047" lon="0.36093">
        <ele>132</ele>
        <time>2020-09-01T14:43:52Z</time>
      </trkpt>
      <trkpt lat="47.97053" lon="0.36105">
        <ele>133</ele>
        <time>2020-09-01T14:44:00Z</time>
      </trkpt>
      <trkpt lat="47.9706" lon="0.36114">
        <ele>133</ele>
        <time>2020-09-01T14:44:09Z</time>
      </trkpt>
      <trkpt lat="47.97067" lon="0.36123">
        <ele>131</ele>
        <time>2020-09-01T14:44:16Z</time>
      </trkpt>
      <trkpt lat="47.97074" lon="0.36134">
        <ele>132</ele>
        <time>2020-09-01T14:44:23Z</time>
      </trkpt>
      <trkpt lat="47.97079" lon="0.36147">
        <ele>131</ele>
        <time>2020-09-01T14:44:30Z</time>
      </trkpt>
      <trkpt lat="47.97086" lon="0.36155">
        <ele>131</ele>
        <time>2020-09-01T14:44:37Z</time>
      </trkpt>
      <trkpt lat="47.97091" lon="0.36167">
        <ele>130</ele>
        <time>2020-09-01T14:44:45Z</time>
      </trkpt>
      <trkpt lat="47.97096" lon="0.36178">
        <ele>130</ele>
        <time>2020-09-01T14:44:53Z</time>
      </trkpt>
      <trkpt lat="47.97102" lon="0.36188">
        <ele>130</ele>
        <time>2020-09-01T14:45:01Z</time>
      </trkpt>
      <trkpt lat="47.97109" lon="0.36198">
        <ele>128</ele>
        <time>2020-09-01T14:45:09Z</time>
      </trkpt>
      <trkpt lat="47.97115" lon="0.36208">
        <ele>126</ele>
        <time>2020-09-01T14:45:16Z</time>
      </trkpt>
      <trkpt lat="47.97123" lon="0.36216">
        <ele>127</ele>
        <time>2020-09-01T14:45:23Z</time>
      </trkpt>
      <trkpt lat="47.97129" lon="0.36226">
        <ele>126</ele>
        <time>2020-09-01T14:45:30Z</time>
      </trkpt>
      <trkpt lat="47.97134" lon="0.36239">
        <ele>125</ele>
        <time>2020-09-01T14:45:38Z</time>
      </trkpt>
      <trkpt lat="47.9714" lon="0.3625">
        <ele>125</ele>
        <time>2020-09-01T14:45:45Z</time>
      </trkpt>
      <trkpt lat="47.97148" lon="0.36258">
        <ele>124</ele>
        <time>2020-09-01T14:45:54Z</time>
      </trkpt>
      <trkpt lat="47.97155" lon="0.3627">
        <ele>125</ele>
        <time>2020-09-01T14:46:02Z</time>
      </trkpt>
      <trkpt lat="47.97162" lon="0.3628">
        <ele>124</ele>
        <time>2020-09-01T14:46:09Z</time>
      </trkpt>
      <trkpt lat="47.97168" lon="0.36289">
        <ele>125</ele>
        <time>2020-09-01T14:46:16Z</time>
      </trkpt>
      <trkpt lat="47.97175" lon="0.36299">
        <ele>126</ele>
        <time>2020-09-01T14:46:22Z</time>
      </trkpt>
      <trkpt lat="47.97182" lon="0.3631">
        <ele>128</ele>
        <time>2020-09-01T14:46:30Z</time>
      </trkpt>
      <trkpt lat="47.97189" lon="0.36319">
        <ele>128</ele>
        <time>2020-09-01T14:46:37Z</time>
      </trkpt>
      <trkpt lat="47.97195" lon="0.3633">
        <ele>128</ele>
        <time>2020-09-01T14:46:45Z</time>
      </trkpt>
      <trkpt lat="47.97202" lon="0.36341">
        <ele>127</ele>
        <time>2020-09-01T14:46:53Z</time>
      </trkpt>
      <trkpt lat="47.97208" lon="0.36353">
        <ele>128</ele>
        <time>2020-09-01T14:47:01Z</time>
      </trkpt>
      <trkpt lat="47.97214" lon="0.36366">
        <ele>127</ele>
        <time>2020-09-01T14:47:10Z</time>
      </trkpt>
      <trkpt lat="47.9722" lon="0.36377">
        <ele>127</ele>
        <time>2020-09-01T14:47:17Z</time>
      </trkpt>
      <trkpt lat="47.97226" lon="0.36389">
        <ele>126</ele>
        <time>2020-09-01T14:47:26Z</time>
      </trkpt>
      <trkpt lat="47.97234" lon="0.36399">
        <ele>125</ele>
        <time>2020-09-01T14:47:33Z</time>
      </trkpt>
      <trkpt lat="47.9724" lon="0.36409">
        <ele>126</ele>
        <time>2020-09-01T14:47:40Z</time>
      </trkpt>
      <trkpt lat="47.97248" lon="0.36418">
        <ele>126</ele>
        <time>2020-09-01T14:47:48Z</time>
      </trkpt>
      <trkpt lat="47.97255" lon="0.36428">
        <ele>127</ele>
        <time>2020-09-01T14:47:57Z</time>
      </trkpt>
      <trkpt lat="47.97262" lon="0.36437">
        <ele>128</ele>
        <time>2020-09-01T14:48:04Z</time>
      </trkpt>
      <trkpt lat="47.97267" lon="0.36449">
        <ele>128</ele>
        <time>2020-09-01T14:48:13Z</time>
      </trkpt>
      <trkpt lat="47.97273" lon="0.3646">
        <ele>128</ele>
        <time>2020-09-01T14:48:21Z</time>
      </trkpt>
      <trkpt lat="47.97278" lon="0.36472">
        <ele>129</ele>
        <time>2020-09-01T14:48:28Z</time>
      </trkpt>
      <trkpt lat="47.97282" lon="0.36484">
        <ele>128</ele>
        <time>2020-09-01T14:48:35Z</time>
      </trkpt>
      <trkpt lat="47.97284" lon="0.36498">
        <ele>128</ele>
        <time>2020-09-01T14:48:42Z</time>
      </trkpt>
      <trkpt lat="47.9729" lon="0.36509">
        <ele>127</ele>
        <time>2020-09-01T14:48:49Z</time>
      </trkpt>
      <trkpt lat="47.97295" lon="0.3652">
        <ele>129</ele>
        <time>2020-09-01T14:48:57Z</time>
      </trkpt>
      <trkpt lat="47.973" lon="0.36532">
        <ele>127</ele>
        <time>2020-09-01T14:49:04Z</time>
      </trkpt>
      <trkpt lat="47.97302" lon="0.36546">
        <ele>128</ele>
        <time>2020-09-01T14:49:12Z</time>
      </trkpt>
      <trkpt lat="47.97308" lon="0.36558">
        <ele>127</ele>
        <time>2020-09-01T14:49:20Z</time>
      </trkpt>
      <trkpt lat="47.9731" lon="0.36571">
        <ele>127</ele>
        <time>2020-09-01T14:49:27Z</time>
      </trkpt>
      <trkpt lat="47.97312" lon="0.36585">
        <ele>128</ele>
        <time>2020-09-01T14:49:34Z</time>
      </trkpt>
      <trkpt lat="47.97316" lon="0.36598">
        <ele>127</ele>
        <time>2020-09-01T14:49:43Z</time>
      </trkpt>
      <trkpt lat="47.97322" lon="0.36611">
        <ele>128</ele>
        <time>2020-09-01T14:49:51Z</time>
      </trkpt>
      <trkpt lat="47.97325" lon="0.36624">
        <ele>129</ele>
        <time>2020-09-01T14:50:00Z</time>
      </trkpt>
      <trkpt lat="47.97328" lon="0.36637">
        <ele>128</ele>
        <time>2020-09-01T14:50:08Z</time>
      </trkpt>
      <trkpt lat="47.97332" lon="0.3665">
        <ele>128</ele>
        <time>2020-09-01T14:50:16Z</time>
      </trkpt>
      <trkpt lat="47.97335" lon="0.36664">
        <ele>130</ele>
        <time>2020-09-01T14:50:24Z</time>
      </trkpt>
      <trkpt lat="47.97339" lon="0.36677">
        <ele>128</ele>
        <time>2020-09-01T14:50:31Z</time>
      </trkpt>
      <trkpt lat="47.97343" lon="0.36689">
        <ele>129</ele>
        <time>2020-09-01T14:50:38Z</time>
      </trkpt>
      <trkpt lat="47.97345" lon="0.36702">
        <ele>130</ele>
        <time>2020-09-01T14:50:45Z</time>
      </trkpt>
      <trkpt lat="47.9735" lon="0.36715">
        <ele>129</ele>
        <time>2020-09-01T14:50:53Z</time>
      </trkpt>
      <trkpt lat="47.97355" lon="0.36727">
        <ele>129</ele>
        <time>2020-09-01T14:51:01Z</time>
      </trkpt>
      <trkpt lat="47.97358" lon="0.36741">
        <ele>129</ele>
        <time>2020-09-01T14:51:09Z</time>
      </trkpt>
      <trkpt lat="47.97361" lon="0.36755">
        <ele>130</ele>
        <time>2020-09-01T14:51:17Z</time>
      </trkpt>
      <trkpt lat="47.97364" lon="0.36768">
        <ele>131</ele>
        <time>2020-09-01T14:51:24Z</time>
      </trkpt>
      <trkpt lat="47.97366" lon="0.36783">
        <ele>130</ele>
        <time>2020-09-01T14:51:32Z</time>
      </trkpt>
      <trkpt lat="47.97371" lon="0.36794">
        <ele>130</ele>
        <time>2020-09-01T14:51:39Z</time>
      </trkpt>
      <trkpt lat="47.97371" lon="0.36808">
        <ele>128</ele>
        <time>2020-09-01T14:51:46Z</time>
      </trkpt>
      <trkpt lat="47.97376" lon="0.36821">
        <ele>129</ele>
        <time>2020-09-01T14:51:54Z</time>
      </trkpt>
      <trkpt lat="47.9738" lon="0.36835">
        <ele>128</ele>
        <time>2020-09-01T14:52:02Z</time>
      </trkpt>
      <trkpt lat="47.97384" lon="0.36847">
        <ele>129</ele>
        <time>2020-09-01T14:52:09Z</time>
      </trkpt>
      <trkpt lat="47.97387" lon="0.36861">
        <ele>128</ele>
        <time>2020-09-01T14:52:18Z</time>
      </trkpt>
      <trkpt lat="47.97389" lon="0.36875">
        <ele>127</ele>
        <time>2020-09-01T14:52:26Z</time>
      </trkpt>
      <trkpt lat="47.97394" lon="0.36886">
        <ele>128</ele>
        <time>2020-09-01T14:52:34Z</time>
      </trkpt>
      <trkpt lat="47.97398" lon="0.36899">
        <ele>127</ele>
        <time>2020-09-01T14:52:42Z</time>
      </trkpt>
      <trkpt lat="47.97402" lon="0.36912">
        <ele>128</ele>
        <time>2020-09-01T14:52:50Z</time>
      </trkpt>
      <trkpt lat="47.97406" lon="0.36925">
        <ele>129</ele>
        <time>2020-09-01T14:52:57Z</time>
      </trkpt>
      <trkpt lat="47.9741" lon="0.36938">
        <ele>128</ele>
        <time>2020-09-01T14:53:05Z</time>
      </trkpt>
      <trkpt lat="47.97411" lon="0.36953">
        <ele>129</ele>
        <time>2020-09-01T14:53:13Z</time>
      </trkpt>
      <trkpt lat="47.97416" lon="0.36966">
        <ele>129</ele>
        <time>2020-09-01T14:53:22Z</time>
      </trkpt>
      <trkpt lat="47.97418" lon="0.3698">
        <ele>127</ele>
        <time>2020-09-01T14:53:29Z</time>
      </trkpt>
      <trkpt lat="47.97422" lon="0.36994">
        <ele>128</ele>
        <time>2020-09-01T14:53:37Z</time>
      </trkpt>
      <trkpt lat="47.97425" lon="0.37007">
        <ele>129</ele>
        <time>2020-09-01T14:53:46Z</time>
      </trkpt>
      <trkpt lat="47.97429" lon="0.37021">
        <ele>128</ele>
        <time>2020-09-01T14:53:54Z</time>
      </trkpt>
      <trkpt lat="47.97434" lon="0.37033">
        <ele>129</ele>
        <time>2020-09-01T14:54:02Z</time>
      </trkpt>
      <trkpt lat="47.97437" lon="0.37046">
        <ele>127</ele>
        <time>2020-09-01T14:54:10Z</time>
      </trkpt>
      <trkpt lat="47.97441" lon="0.37059">
        <ele>128</ele>
        <time>2020-09-01T14:54:18Z</time>
      </trkpt>
      <trkpt lat="47.97443" lon="0.37073">
        <ele>127</ele>
        <time>2020-09-01T14:54:26Z</time>
      </trkpt>
      <trkpt lat="47.97448" lon="0.37085">
        <ele>126</ele>
        <time>2020-09-01T14:54:34Z</time>
      </trkpt>
      <trkpt lat="47.97451" lon="0.37099">
        <ele>127</ele>
        <time>2020-09-01T14:54:42Z</time>
      </trkpt>
      <trkpt lat="47.97455" lon="0.37111">
        <ele>126</ele>
        <time>2020-09-01T14:54:49Z</time>
      </trkpt>
      <trkpt lat="47.9746" lon="0.37125">
        <ele>127</ele>
        <time>2020-09-01T14:54:57Z</time>
      </trkpt>
      <trkpt lat="47.97461" lon="0.37138">
        <ele>127</ele>
        <time>2020-09-01T14:55:05Z</time>
      </trkpt>
      <trkpt lat="47.97464" lon="0.37152">
        <ele>128</ele>
        <time>2020-09-01T14:55:12Z</time>
      </trkpt>
      <trkpt lat="47.97468" lon="0.37163">
        <ele>127</ele>
        <time>2020-09-01T14:55:19Z</time>
      </trkpt>
      <trkpt lat="47.97472" lon="0.37176">
        <ele>128</ele>
        <time>2020-09-01T14:55:27Z</time>
      </trkpt>
      <trkpt lat="47.97474" lon="0.3719">
        <ele>128</ele>
        <time>2020-09-01T14:55:35Z</time>
      </trkpt>
      <trkpt lat="47.97477" lon="0.37203">
        <ele>127</ele>
        <time>2020-09-01T14:55:43Z</time>
      </trkpt>
      <trkpt lat="47.9748" lon="0.37217">
        <ele>128</ele>
        <time>2020-09-01T14:55:51Z</time>
      </trkpt>
      <trkpt lat="47.97484" lon="0.37229">
        <ele>128</ele>
        <time>2020-09-01T14:55:59Z</time>
      </trkpt>
      <trkpt lat="47.97489" lon="0.37243">
        <ele>128</ele>
        <time>2020-09-01T14:56:07Z</time>
      </trkpt>
      <trkpt lat="47.97492" lon="0.37257">
        <ele>127</ele>
        <time>2020-09-01T14:56:15Z</time>
      </trkpt>
      <trkpt lat="47.97495" lon="0.37271">
        <ele>128</ele>
        <time>2020-09-01T14:56:23Z</time>
      </trkpt>
      <trkpt lat="47.975" lon="0.37283">
        <ele>127</ele>
        <time>2020-09-01T14:56:31Z</time>
      </trkpt>
      <trkpt lat="47.97506" lon="0.37293">
        <ele>127</ele>
        <time>2020-09-01T14:56:39Z</time>
      </trkpt>
      <trkpt lat="47.97509" lon="0.37307">
        <ele>129</ele>
        <time>2020-09-01T14:56:47Z</time>
      </trkpt>
      <trkpt lat="47.97511" lon="0.3732">
        <ele>128</ele>
        <time>2020-09-01T14:56:55Z</time>
      </trkpt>
      <trkpt lat="47.97514" lon="0.37335">
        <ele>127</ele>
        <time>2020-09-01T14:57:04Z</time>
      </trkpt>
      <trkpt lat="47.97516" lon="0.37348">
        <ele>126</ele>
        <time>2020-09-01T14:57:12Z</time>
      </trkpt>
      <trkpt lat="47.97519" lon="0.37361">
        <ele>127</ele>
        <time>2020-09-01T14:57:19Z</time>
      </trkpt>
      <trkpt lat="47.97524" lon="0.37373">
        <ele>127</ele>
        <time>2020-09-01T14:57:27Z</time>
      </trkpt>
      <trkpt lat="47.97527" lon="0.37386">
        <ele>128</ele>
        <time>2020-09-01T14:57:34Z</time>
      </trkpt>
      <trkpt lat="47.97532" lon="0.37399">
        <ele>128</ele>
        <time>2020-09-01T14:57:42Z</time>
      </trkpt>
      <trkpt lat="47.97535" lon="0.37413">
        <ele>128</ele>
        <time>2020-09-01T14:57:49Z</time>
      </trkpt>
      <trkpt lat="47.97538" lon="0.37426">
        <ele>128</ele>
        <time>2020-09-01T14:57:57Z</time>
      </trkpt>
      <trkpt lat="47.97542" lon="0.37439">
        <ele>127</ele>
        <time>2020-09-01T14:58:05Z</time>
      </trkpt>
      <trkpt lat="47.97544" lon="0.37454">
        <ele>128</ele>
        <time>2020-09-01T14:58:14Z</time>
      </trkpt>
      <trkpt lat="47.97547" lon="0.37466">
        <ele>127</ele>
        <time>2020-09-01T14:58:21Z</time>
      </trkpt>
      <trkpt lat="47.9755" lon="0.3748">
        <ele>128</ele>
        <time>2020-09-01T14:58:29Z</time>
      </trkpt>
      <trkpt lat="47.97555" lon="0.37492">
        <ele>127</ele>
        <time>2020-09-01T14:58:37Z</time>
      </trkpt>
      <trkpt lat="47.97559" lon="0.37505">
        <ele>128</ele>
        <time>2020-09-01T14:58:45Z</time>
      </trkpt>
      <trkpt lat="47.97562" lon="0.3752">
        <ele>128</ele>
        <time>2020-09-01T14:58:53Z</time>
      </trkpt>
      <trkpt lat="47.97567" lon="0.37533">
        <ele>128</ele>
        <time>2020-09-01T14:59:01Z</time>
      </trkpt>
      <trkpt lat="47.97571" lon="0.37546">
        <ele>127</ele>
        <time>2020-09-01T14:59:09Z</time>
      </trkpt>
      <trkpt lat="47.97575" lon="0.37559">
        <ele>127</ele>
        <time>2020-09-01T14:59:16Z</time>
      </trkpt>
      <trkpt lat="47.9758" lon="0.3757">
        <ele>128</ele>
        <time>2020-09-01T14:59:24Z</time>
      </trkpt>
      <trkpt lat="47.97579" lon="0.37584">
        <ele>128</ele>
        <time>2020-09-01T14:59:32Z</time>
      </trkpt>
      <trkpt lat="47.97581" lon="0.37598">
        <ele>129</ele>
        <time>2020-09-01T14:59:40Z</time>
      </trkpt>
      <trkpt lat="47.97586" lon="0.37609">
        <ele>129</ele>
        <time>2020-09-01T14:59:48Z</time>
      </trkpt>
      <trkpt lat="47.9759" lon="0.37624">
        <ele>130</ele>
        <time>2020-09-01T14:59:56Z</time>
      </trkpt>
      <trkpt lat="47.97593" lon="0.37638">
        <ele>130</ele>
        <time>2020-09-01T15:00:04Z</time>
      </trkpt>
      <trkpt lat="47.97597" lon="0.37651">
        <ele>130</ele>
        <time>2020-09-01T15:00:12Z</time>
      </trkpt>
      <trkpt lat="47.97601" lon="0.37664">
        <ele>130</ele>
        <time>2020-09-01T15:00:20Z</time>
      </trkpt>
      <trkpt lat="47.97606" lon="0.37677">
        <ele>132</ele>
        <time>2020-09-01T15:00:28Z</time>
      </trkpt>
      <trkpt lat="47.97609" lon="0.3769">
        <ele>131</ele>
        <time>2020-09-01T15:00:35Z</time>
      </trkpt>
      <trkpt lat="47.97613" lon="0.37702">
        <ele>130</ele>
        <time>2020-09-01T15:00:44Z</time>
      </trkpt>
      <trkpt lat="47.97617" lon="0.37715">
        <ele>129</ele>
        <time>2020-09-01T15:00:53Z</time>
      </trkpt>
      <trkpt lat="47.97621" lon="0.37728">
        <ele>128</ele>
        <time>2020-09-01T15:01:01Z</time>
      </trkpt>
      <trkpt lat="47.97625" lon="0.37742">
        <ele>128</ele>
        <time>2020-09-01T15:01:10Z</time>
      </trkpt>
      <trkpt lat="47.97627" lon="0.37755">
        <ele>128</ele>
        <time>2020-09-01T15:01:19Z</time>
      </trkpt>
      <trkpt lat="47.97629" lon="0.37768">
        <ele>128</ele>
        <time>2020-09-01T15:01:27Z</time>
      </trkpt>
      <trkpt lat="47.97632" lon="0.37782">
        <ele>128</ele>
        <time>2020-09-01T15:01:35Z</time>
      </trkpt>
      <trkpt lat="47.97636" lon="0.37794">
        <ele>128</ele>
        <time>2020-09-01T15:01:43Z</time>
      </trkpt>
      <trkpt lat="47.9764" lon="0.37807">
        <ele>128</ele>
        <time>2020-09-01T15:01:51Z</time>
      </trkpt>
      <trkpt lat="47.97643" lon="0.3782">
        <ele>129</ele>
        <time>2020-09-01T15:01:58Z</time>
      </trkpt>
      <trkpt lat="47.97645" lon="0.37835">
        <ele>131</ele>
        <time>2020-09-01T15:02:09Z</time>
      </trkpt>
      <trkpt lat="47.97647" lon="0.37848">
        <ele>130</ele>
        <time>2020-09-01T15:02:16Z</time>
      </trkpt>
      <trkpt lat="47.97648" lon="0.37862">
        <ele>129</ele>
        <time>2020-09-01T15:02:23Z</time>
      </trkpt>
      <trkpt lat="47.9765" lon="0.37877">
        <ele>129</ele>
        <time>2020-09-01T15:02:31Z</time>
      </trkpt>
      <trkpt lat="47.97653" lon="0.3789">
        <ele>130</ele>
        <time>2020-09-01T15:02:39Z</time>
      </trkpt>
      <trkpt lat="47.97654" lon="0.37904">
        <ele>127</ele>
        <time>2020-09-01T15:02:47Z</time>
      </trkpt>
      <trkpt lat="47.97656" lon="0.37919">
        <ele>129</ele>
        <time>2020-09-01T15:02:56Z</time>
      </trkpt>
      <trkpt lat="47.97659" lon="0.37933">
        <ele>132</ele>
        <time>2020-09-01T15:03:06Z</time>
      </trkpt>
      <trkpt lat="47.9766" lon="0.37947">
        <ele>131</ele>
        <time>2020-09-01T15:03:15Z</time>
      </trkpt>
      <trkpt lat="47.97657" lon="0.37949">
        <ele>131</ele>
        <time>2020-09-01T15:03:38Z</time>
      </trkpt>
      <trkpt lat="47.97657" lon="0.37949">
        <ele>131</ele>
        <time>2020-09-01T15:03:38Z</time>
      </trkpt>
      <trkpt lat="47.97659" lon="0.3797">
        <ele>131</ele>
        <time>2020-09-01T15:04:06Z</time>
      </trkpt>
      <trkpt lat="47.97659" lon="0.37984">
        <ele>130</ele>
        <time>2020-09-01T15:04:14Z</time>
      </trkpt>
      <trkpt lat="47.9766" lon="0.37999">
        <ele>131</ele>
        <time>2020-09-01T15:04:23Z</time>
      </trkpt>
      <trkpt lat="47.97664" lon="0.38012">
        <ele>130</ele>
        <time>2020-09-01T15:04:33Z</time>
      </trkpt>
      <trkpt lat="47.97669" lon="0.38026">
        <ele>128</ele>
        <time>2020-09-01T15:04:41Z</time>
      </trkpt>
      <trkpt lat="47.9767" lon="0.3804">
        <ele>127</ele>
        <time>2020-09-01T15:04:49Z</time>
      </trkpt>
      <trkpt lat="47.97672" lon="0.38054">
        <ele>126</ele>
        <time>2020-09-01T15:04:58Z</time>
      </trkpt>
      <trkpt lat="47.97672" lon="0.38067">
        <ele>125</ele>
        <time>2020-09-01T15:05:06Z</time>
      </trkpt>
      <trkpt lat="47.97672" lon="0.38081">
        <ele>126</ele>
        <time>2020-09-01T15:05:14Z</time>
      </trkpt>
      <trkpt lat="47.97674" lon="0.38096">
        <ele>126</ele>
        <time>2020-09-01T15:05:22Z</time>
      </trkpt>
      <trkpt lat="47.97674" lon="0.3811">
        <ele>126</ele>
        <time>2020-09-01T15:05:30Z</time>
      </trkpt>
      <trkpt lat="47.97675" lon="0.38124">
        <ele>126</ele>
        <time>2020-09-01T15:05:37Z</time>
      </trkpt>
      <trkpt lat="47.97677" lon="0.38137">
        <ele>128</ele>
        <time>2020-09-01T15:05:44Z</time>
      </trkpt>
      <trkpt lat="47.9768" lon="0.38151">
        <ele>128</ele>
        <time>2020-09-01T15:05:53Z</time>
      </trkpt>
      <trkpt lat="47.97682" lon="0.38164">
        <ele>128</ele>
        <time>2020-09-01T15:06:00Z</time>
      </trkpt>
      <trkpt lat="47.97684" lon="0.38178">
        <ele>129</ele>
        <time>2020-09-01T15:06:07Z</time>
      </trkpt>
      <trkpt lat="47.97686" lon="0.38193">
        <ele>129</ele>
        <time>2020-09-01T15:06:15Z</time>
      </trkpt>
      <trkpt lat="47.97687" lon="0.38207">
        <ele>128</ele>
        <time>2020-09-01T15:06:24Z</time>
      </trkpt>
      <trkpt lat="47.9769" lon="0.38221">
        <ele>128</ele>
        <time>2020-09-01T15:06:32Z</time>
      </trkpt>
      <trkpt lat="47.9769" lon="0.38236">
        <ele>128</ele>
        <time>2020-09-01T15:06:40Z</time>
      </trkpt>
      <trkpt lat="47.97692" lon="0.3825">
        <ele>128</ele>
        <time>2020-09-01T15:06:48Z</time>
      </trkpt>
      <trkpt lat="47.97695" lon="0.38263">
        <ele>127</ele>
        <time>2020-09-01T15:06:56Z</time>
      </trkpt>
      <trkpt lat="47.97696" lon="0.38277">
        <ele>127</ele>
        <time>2020-09-01T15:07:04Z</time>
      </trkpt>
      <trkpt lat="47.97698" lon="0.38291">
        <ele>127</ele>
        <time>2020-09-01T15:07:12Z</time>
      </trkpt>
      <trkpt lat="47.97698" lon="0.38305">
        <ele>129</ele>
        <time>2020-09-01T15:07:19Z</time>
      </trkpt>
      <trkpt lat="47.97702" lon="0.38319">
        <ele>129</ele>
        <time>2020-09-01T15:07:26Z</time>
      </trkpt>
      <trkpt lat="47.97703" lon="0.38333">
        <ele>128</ele>
        <time>2020-09-01T15:07:35Z</time>
      </trkpt>
      <trkpt lat="47.97705" lon="0.38346">
        <ele>128</ele>
        <time>2020-09-01T15:07:44Z</time>
      </trkpt>
      <trkpt lat="47.97708" lon="0.38361">
        <ele>128</ele>
        <time>2020-09-01T15:07:52Z</time>
      </trkpt>
      <trkpt lat="47.9771" lon="0.38374">
        <ele>127</ele>
        <time>2020-09-01T15:08:00Z</time>
      </trkpt>
      <trkpt lat="47.97715" lon="0.38386">
        <ele>127</ele>
        <time>2020-09-01T15:08:07Z</time>
      </trkpt>
      <trkpt lat="47.97715" lon="0.384">
        <ele>127</ele>
        <time>2020-09-01T15:08:15Z</time>
      </trkpt>
      <trkpt lat="47.97717" lon="0.38415">
        <ele>127</ele>
        <time>2020-09-01T15:08:24Z</time>
      </trkpt>
      <trkpt lat="47.97718" lon="0.38429">
        <ele>128</ele>
        <time>2020-09-01T15:08:30Z</time>
      </trkpt>
      <trkpt lat="47.9772" lon="0.38443">
        <ele>127</ele>
        <time>2020-09-01T15:08:39Z</time>
      </trkpt>
      <trkpt lat="47.9772" lon="0.3846">
        <ele>130</ele>
        <time>2020-09-01T15:08:46Z</time>
      </trkpt>
      <trkpt lat="47.9772" lon="0.38474">
        <ele>130</ele>
        <time>2020-09-01T15:08:55Z</time>
      </trkpt>
      <trkpt lat="47.97722" lon="0.38489">
        <ele>131</ele>
        <time>2020-09-01T15:09:04Z</time>
      </trkpt>
      <trkpt lat="47.97726" lon="0.385">
        <ele>130</ele>
        <time>2020-09-01T15:09:11Z</time>
      </trkpt>
      <trkpt lat="47.97729" lon="0.38513">
        <ele>129</ele>
        <time>2020-09-01T15:09:17Z</time>
      </trkpt>
      <trkpt lat="47.97731" lon="0.38529">
        <ele>129</ele>
        <time>2020-09-01T15:09:26Z</time>
      </trkpt>
      <trkpt lat="47.97732" lon="0.38544">
        <ele>129</ele>
        <time>2020-09-01T15:09:35Z</time>
      </trkpt>
      <trkpt lat="47.97735" lon="0.38558">
        <ele>129</ele>
        <time>2020-09-01T15:09:42Z</time>
      </trkpt>
      <trkpt lat="47.97735" lon="0.38571">
        <ele>130</ele>
        <time>2020-09-01T15:09:50Z</time>
      </trkpt>
      <trkpt lat="47.97738" lon="0.38586">
        <ele>131</ele>
        <time>2020-09-01T15:09:58Z</time>
      </trkpt>
      <trkpt lat="47.97741" lon="0.386">
        <ele>131</ele>
        <time>2020-09-01T15:10:08Z</time>
      </trkpt>
      <trkpt lat="47.97743" lon="0.38614">
        <ele>130</ele>
        <time>2020-09-01T15:10:16Z</time>
      </trkpt>
      <trkpt lat="47.97743" lon="0.38628">
        <ele>130</ele>
        <time>2020-09-01T15:10:23Z</time>
      </trkpt>
      <trkpt lat="47.97744" lon="0.38642">
        <ele>129</ele>
        <time>2020-09-01T15:10:30Z</time>
      </trkpt>
      <trkpt lat="47.9775" lon="0.38653">
        <ele>129</ele>
        <time>2020-09-01T15:10:38Z</time>
      </trkpt>
      <trkpt lat="47.97749" lon="0.38655">
        <ele>129</ele>
        <time>2020-09-01T15:10:52Z</time>
      </trkpt>
      <trkpt lat="47.97749" lon="0.38655">
        <ele>129</ele>
        <time>2020-09-01T15:10:52Z</time>
      </trkpt>
    </trkseg>
  </trk>
</gpx>